<?xml version="1.0" encoding="UTF-8" standalone="no" ?>
<gpx xmlns="http://www.topografix.com/GPX/1/1" xmlns:xsi="http://www.w3.org/2001/XMLSchema-instance" xsi:schemaLocation="http://www.topografix.com/GPX/1/1 http://www.topografix.com/GPX/1/1/gpx.xsd" version="1.1" creator="VisuGPX - https://www.visugpx.com">
  <metadata>
    <name>Grands, boucle du 21/12/2013</name>
    <desc><![CDATA[Boucle des Grands]]></desc>
  </metadata>
  <trk>
    <name><![CDATA[21-DEC-13 boucle des grands]]></name>
    <trkseg>
      <trkpt lat="43.00741" lon="-0.09508">
        <ele>427.92</ele>
        <time>2013-12-21T13:22:53Z</time>
      </trkpt>
      <trkpt lat="43.0074" lon="-0.09508">
        <ele>425.52</ele>
        <time>2013-12-21T13:23:10Z</time>
      </trkpt>
      <trkpt lat="43.0074" lon="-0.09508">
        <ele>426</ele>
        <time>2013-12-21T13:23:27Z</time>
      </trkpt>
      <trkpt lat="43.00735" lon="-0.09512">
        <ele>425.52</ele>
        <time>2013-12-21T13:23:31Z</time>
      </trkpt>
      <trkpt lat="43.00713" lon="-0.09537">
        <ele>428.4</ele>
        <time>2013-12-21T13:23:43Z</time>
      </trkpt>
      <trkpt lat="43.00706" lon="-0.09589">
        <ele>428.89</ele>
        <time>2013-12-21T13:23:58Z</time>
      </trkpt>
      <trkpt lat="43.00704" lon="-0.09641">
        <ele>430.33</ele>
        <time>2013-12-21T13:24:12Z</time>
      </trkpt>
      <trkpt lat="43.00699" lon="-0.097">
        <ele>431.77</ele>
        <time>2013-12-21T13:24:26Z</time>
      </trkpt>
      <trkpt lat="43.00696" lon="-0.09742">
        <ele>432.73</ele>
        <time>2013-12-21T13:24:35Z</time>
      </trkpt>
      <trkpt lat="43.00696" lon="-0.09751">
        <ele>432.73</ele>
        <time>2013-12-21T13:24:37Z</time>
      </trkpt>
      <trkpt lat="43.00728" lon="-0.09769">
        <ele>432.25</ele>
        <time>2013-12-21T13:24:46Z</time>
      </trkpt>
      <trkpt lat="43.00799" lon="-0.09794">
        <ele>430.81</ele>
        <time>2013-12-21T13:25:02Z</time>
      </trkpt>
      <trkpt lat="43.00864" lon="-0.09821">
        <ele>429.85</ele>
        <time>2013-12-21T13:25:17Z</time>
      </trkpt>
      <trkpt lat="43.00868" lon="-0.09826">
        <ele>430.33</ele>
        <time>2013-12-21T13:25:26Z</time>
      </trkpt>
      <trkpt lat="43.00868" lon="-0.09826">
        <ele>430.33</ele>
        <time>2013-12-21T13:25:30Z</time>
      </trkpt>
      <trkpt lat="43.0087" lon="-0.09823">
        <ele>429.85</ele>
        <time>2013-12-21T13:25:33Z</time>
      </trkpt>
      <trkpt lat="43.0087" lon="-0.09825">
        <ele>429.85</ele>
        <time>2013-12-21T13:25:41Z</time>
      </trkpt>
      <trkpt lat="43.00873" lon="-0.09825">
        <ele>429.85</ele>
        <time>2013-12-21T13:25:44Z</time>
      </trkpt>
      <trkpt lat="43.00874" lon="-0.09835">
        <ele>429.85</ele>
        <time>2013-12-21T13:25:48Z</time>
      </trkpt>
      <trkpt lat="43.00886" lon="-0.09849">
        <ele>432.25</ele>
        <time>2013-12-21T13:25:56Z</time>
      </trkpt>
      <trkpt lat="43.00889" lon="-0.09851">
        <ele>432.73</ele>
        <time>2013-12-21T13:25:58Z</time>
      </trkpt>
      <trkpt lat="43.00884" lon="-0.09853">
        <ele>433.21</ele>
        <time>2013-12-21T13:26:02Z</time>
      </trkpt>
      <trkpt lat="43.00869" lon="-0.09855">
        <ele>436.1</ele>
        <time>2013-12-21T13:26:11Z</time>
      </trkpt>
      <trkpt lat="43.00876" lon="-0.09858">
        <ele>437.54</ele>
        <time>2013-12-21T13:26:16Z</time>
      </trkpt>
      <trkpt lat="43.00878" lon="-0.09864">
        <ele>438.02</ele>
        <time>2013-12-21T13:26:20Z</time>
      </trkpt>
      <trkpt lat="43.00871" lon="-0.09868">
        <ele>439.46</ele>
        <time>2013-12-21T13:26:29Z</time>
      </trkpt>
      <trkpt lat="43.00879" lon="-0.09871">
        <ele>440.9</ele>
        <time>2013-12-21T13:26:37Z</time>
      </trkpt>
      <trkpt lat="43.00874" lon="-0.09872">
        <ele>442.34</ele>
        <time>2013-12-21T13:26:42Z</time>
      </trkpt>
      <trkpt lat="43.00861" lon="-0.09874">
        <ele>443.31</ele>
        <time>2013-12-21T13:26:49Z</time>
      </trkpt>
      <trkpt lat="43.00833" lon="-0.09885">
        <ele>445.23</ele>
        <time>2013-12-21T13:27:03Z</time>
      </trkpt>
      <trkpt lat="43.00811" lon="-0.09909">
        <ele>446.19</ele>
        <time>2013-12-21T13:27:15Z</time>
      </trkpt>
      <trkpt lat="43.00795" lon="-0.09941">
        <ele>447.63</ele>
        <time>2013-12-21T13:27:28Z</time>
      </trkpt>
      <trkpt lat="43.00793" lon="-0.09944">
        <ele>447.63</ele>
        <time>2013-12-21T13:27:39Z</time>
      </trkpt>
      <trkpt lat="43.00798" lon="-0.09958">
        <ele>449.07</ele>
        <time>2013-12-21T13:27:47Z</time>
      </trkpt>
      <trkpt lat="43.00812" lon="-0.09948">
        <ele>449.07</ele>
        <time>2013-12-21T13:27:54Z</time>
      </trkpt>
      <trkpt lat="43.00856" lon="-0.09953">
        <ele>450.52</ele>
        <time>2013-12-21T13:28:10Z</time>
      </trkpt>
      <trkpt lat="43.00897" lon="-0.0995">
        <ele>451.48</ele>
        <time>2013-12-21T13:28:24Z</time>
      </trkpt>
      <trkpt lat="43.00902" lon="-0.0995">
        <ele>451.48</ele>
        <time>2013-12-21T13:28:26Z</time>
      </trkpt>
      <trkpt lat="43.00912" lon="-0.09977">
        <ele>451.48</ele>
        <time>2013-12-21T13:28:33Z</time>
      </trkpt>
      <trkpt lat="43.00919" lon="-0.10012">
        <ele>451.96</ele>
        <time>2013-12-21T13:28:44Z</time>
      </trkpt>
      <trkpt lat="43.00919" lon="-0.10013">
        <ele>451</ele>
        <time>2013-12-21T13:28:55Z</time>
      </trkpt>
      <trkpt lat="43.00918" lon="-0.10011">
        <ele>451</ele>
        <time>2013-12-21T13:29:30Z</time>
      </trkpt>
      <trkpt lat="43.00919" lon="-0.10012">
        <ele>451.48</ele>
        <time>2013-12-21T13:30:07Z</time>
      </trkpt>
      <trkpt lat="43.0092" lon="-0.10012">
        <ele>451.96</ele>
        <time>2013-12-21T13:30:35Z</time>
      </trkpt>
      <trkpt lat="43.00919" lon="-0.10013">
        <ele>452.44</ele>
        <time>2013-12-21T13:30:43Z</time>
      </trkpt>
      <trkpt lat="43.00922" lon="-0.10025">
        <ele>452.44</ele>
        <time>2013-12-21T13:30:48Z</time>
      </trkpt>
      <trkpt lat="43.00928" lon="-0.10048">
        <ele>452.92</ele>
        <time>2013-12-21T13:30:55Z</time>
      </trkpt>
      <trkpt lat="43.00928" lon="-0.10073">
        <ele>456.28</ele>
        <time>2013-12-21T13:31:04Z</time>
      </trkpt>
      <trkpt lat="43.00927" lon="-0.10076">
        <ele>456.76</ele>
        <time>2013-12-21T13:31:05Z</time>
      </trkpt>
      <trkpt lat="43.00926" lon="-0.10098">
        <ele>460.61</ele>
        <time>2013-12-21T13:31:12Z</time>
      </trkpt>
      <trkpt lat="43.00926" lon="-0.10101">
        <ele>461.09</ele>
        <time>2013-12-21T13:31:13Z</time>
      </trkpt>
      <trkpt lat="43.00931" lon="-0.10112">
        <ele>463.01</ele>
        <time>2013-12-21T13:31:17Z</time>
      </trkpt>
      <trkpt lat="43.00942" lon="-0.10124">
        <ele>465.42</ele>
        <time>2013-12-21T13:31:23Z</time>
      </trkpt>
      <trkpt lat="43.00946" lon="-0.10125">
        <ele>466.38</ele>
        <time>2013-12-21T13:31:25Z</time>
      </trkpt>
      <trkpt lat="43.00954" lon="-0.10126">
        <ele>466.86</ele>
        <time>2013-12-21T13:31:28Z</time>
      </trkpt>
      <trkpt lat="43.00995" lon="-0.10122">
        <ele>466.38</ele>
        <time>2013-12-21T13:31:42Z</time>
      </trkpt>
      <trkpt lat="43.01029" lon="-0.10139">
        <ele>466.86</ele>
        <time>2013-12-21T13:31:54Z</time>
      </trkpt>
      <trkpt lat="43.01041" lon="-0.10137">
        <ele>467.34</ele>
        <time>2013-12-21T13:31:58Z</time>
      </trkpt>
      <trkpt lat="43.01067" lon="-0.10128">
        <ele>465.9</ele>
        <time>2013-12-21T13:32:06Z</time>
      </trkpt>
      <trkpt lat="43.01094" lon="-0.10137">
        <ele>465.9</ele>
        <time>2013-12-21T13:32:14Z</time>
      </trkpt>
      <trkpt lat="43.01125" lon="-0.10154">
        <ele>467.34</ele>
        <time>2013-12-21T13:32:23Z</time>
      </trkpt>
      <trkpt lat="43.01141" lon="-0.10162">
        <ele>468.78</ele>
        <time>2013-12-21T13:32:29Z</time>
      </trkpt>
      <trkpt lat="43.01153" lon="-0.10164">
        <ele>471.66</ele>
        <time>2013-12-21T13:32:36Z</time>
      </trkpt>
      <trkpt lat="43.01155" lon="-0.10163">
        <ele>472.14</ele>
        <time>2013-12-21T13:32:38Z</time>
      </trkpt>
      <trkpt lat="43.0116" lon="-0.10167">
        <ele>473.59</ele>
        <time>2013-12-21T13:32:42Z</time>
      </trkpt>
      <trkpt lat="43.01165" lon="-0.10169">
        <ele>472.63</ele>
        <time>2013-12-21T13:32:52Z</time>
      </trkpt>
      <trkpt lat="43.01166" lon="-0.10168">
        <ele>472.63</ele>
        <time>2013-12-21T13:33:27Z</time>
      </trkpt>
      <trkpt lat="43.01167" lon="-0.10167">
        <ele>474.07</ele>
        <time>2013-12-21T13:33:35Z</time>
      </trkpt>
      <trkpt lat="43.0117" lon="-0.10166">
        <ele>474.07</ele>
        <time>2013-12-21T13:33:38Z</time>
      </trkpt>
      <trkpt lat="43.01189" lon="-0.10159">
        <ele>475.51</ele>
        <time>2013-12-21T13:33:48Z</time>
      </trkpt>
      <trkpt lat="43.01199" lon="-0.10157">
        <ele>477.43</ele>
        <time>2013-12-21T13:33:54Z</time>
      </trkpt>
      <trkpt lat="43.01213" lon="-0.10155">
        <ele>480.8</ele>
        <time>2013-12-21T13:34:03Z</time>
      </trkpt>
      <trkpt lat="43.01216" lon="-0.10151">
        <ele>481.76</ele>
        <time>2013-12-21T13:34:06Z</time>
      </trkpt>
      <trkpt lat="43.01225" lon="-0.10152">
        <ele>482.72</ele>
        <time>2013-12-21T13:34:11Z</time>
      </trkpt>
      <trkpt lat="43.0123" lon="-0.1015">
        <ele>483.2</ele>
        <time>2013-12-21T13:34:14Z</time>
      </trkpt>
      <trkpt lat="43.01233" lon="-0.10148">
        <ele>484.16</ele>
        <time>2013-12-21T13:34:16Z</time>
      </trkpt>
      <trkpt lat="43.01239" lon="-0.10145">
        <ele>485.6</ele>
        <time>2013-12-21T13:34:20Z</time>
      </trkpt>
      <trkpt lat="43.0125" lon="-0.10139">
        <ele>487.05</ele>
        <time>2013-12-21T13:34:28Z</time>
      </trkpt>
      <trkpt lat="43.01264" lon="-0.10131">
        <ele>488.01</ele>
        <time>2013-12-21T13:34:36Z</time>
      </trkpt>
      <trkpt lat="43.01275" lon="-0.1013">
        <ele>488.97</ele>
        <time>2013-12-21T13:34:41Z</time>
      </trkpt>
      <trkpt lat="43.01289" lon="-0.10126">
        <ele>491.37</ele>
        <time>2013-12-21T13:34:49Z</time>
      </trkpt>
      <trkpt lat="43.01306" lon="-0.10129">
        <ele>493.29</ele>
        <time>2013-12-21T13:34:57Z</time>
      </trkpt>
      <trkpt lat="43.01317" lon="-0.10133">
        <ele>492.81</ele>
        <time>2013-12-21T13:35:01Z</time>
      </trkpt>
      <trkpt lat="43.01348" lon="-0.10143">
        <ele>493.77</ele>
        <time>2013-12-21T13:35:13Z</time>
      </trkpt>
      <trkpt lat="43.01367" lon="-0.10153">
        <ele>495.7</ele>
        <time>2013-12-21T13:35:22Z</time>
      </trkpt>
      <trkpt lat="43.01377" lon="-0.10153">
        <ele>495.7</ele>
        <time>2013-12-21T13:35:26Z</time>
      </trkpt>
      <trkpt lat="43.01392" lon="-0.10149">
        <ele>494.74</ele>
        <time>2013-12-21T13:35:29Z</time>
      </trkpt>
      <trkpt lat="43.01414" lon="-0.10134">
        <ele>492.81</ele>
        <time>2013-12-21T13:35:33Z</time>
      </trkpt>
      <trkpt lat="43.01451" lon="-0.10095">
        <ele>494.74</ele>
        <time>2013-12-21T13:35:45Z</time>
      </trkpt>
      <trkpt lat="43.01453" lon="-0.10091">
        <ele>494.74</ele>
        <time>2013-12-21T13:35:46Z</time>
      </trkpt>
      <trkpt lat="43.01479" lon="-0.10061">
        <ele>497.14</ele>
        <time>2013-12-21T13:35:58Z</time>
      </trkpt>
      <trkpt lat="43.01503" lon="-0.10041">
        <ele>500.5</ele>
        <time>2013-12-21T13:36:08Z</time>
      </trkpt>
      <trkpt lat="43.01521" lon="-0.10025">
        <ele>502.91</ele>
        <time>2013-12-21T13:36:18Z</time>
      </trkpt>
      <trkpt lat="43.01542" lon="-0.10015">
        <ele>504.83</ele>
        <time>2013-12-21T13:36:28Z</time>
      </trkpt>
      <trkpt lat="43.01559" lon="-0.10009">
        <ele>507.23</ele>
        <time>2013-12-21T13:36:36Z</time>
      </trkpt>
      <trkpt lat="43.01565" lon="-0.10006">
        <ele>508.19</ele>
        <time>2013-12-21T13:36:39Z</time>
      </trkpt>
      <trkpt lat="43.01589" lon="-0.09995">
        <ele>510.6</ele>
        <time>2013-12-21T13:36:50Z</time>
      </trkpt>
      <trkpt lat="43.01597" lon="-0.09993">
        <ele>511.08</ele>
        <time>2013-12-21T13:36:53Z</time>
      </trkpt>
      <trkpt lat="43.01603" lon="-0.09991">
        <ele>511.56</ele>
        <time>2013-12-21T13:36:56Z</time>
      </trkpt>
      <trkpt lat="43.01619" lon="-0.09984">
        <ele>512.52</ele>
        <time>2013-12-21T13:37:04Z</time>
      </trkpt>
      <trkpt lat="43.01631" lon="-0.09979">
        <ele>513.48</ele>
        <time>2013-12-21T13:37:10Z</time>
      </trkpt>
      <trkpt lat="43.01654" lon="-0.09978">
        <ele>515.4</ele>
        <time>2013-12-21T13:37:22Z</time>
      </trkpt>
      <trkpt lat="43.01655" lon="-0.09978">
        <ele>515.88</ele>
        <time>2013-12-21T13:37:23Z</time>
      </trkpt>
      <trkpt lat="43.01677" lon="-0.09992">
        <ele>517.81</ele>
        <time>2013-12-21T13:37:36Z</time>
      </trkpt>
      <trkpt lat="43.01683" lon="-0.10001">
        <ele>518.29</ele>
        <time>2013-12-21T13:37:41Z</time>
      </trkpt>
      <trkpt lat="43.01688" lon="-0.10029">
        <ele>517.33</ele>
        <time>2013-12-21T13:37:52Z</time>
      </trkpt>
      <trkpt lat="43.01691" lon="-0.10038">
        <ele>514.92</ele>
        <time>2013-12-21T13:37:54Z</time>
      </trkpt>
      <trkpt lat="43.01691" lon="-0.10054">
        <ele>513.48</ele>
        <time>2013-12-21T13:37:56Z</time>
      </trkpt>
      <trkpt lat="43.01716" lon="-0.10067">
        <ele>510.6</ele>
        <time>2013-12-21T13:38:00Z</time>
      </trkpt>
      <trkpt lat="43.01749" lon="-0.10063">
        <ele>513</ele>
        <time>2013-12-21T13:38:06Z</time>
      </trkpt>
      <trkpt lat="43.01777" lon="-0.10074">
        <ele>514.92</ele>
        <time>2013-12-21T13:38:16Z</time>
      </trkpt>
      <trkpt lat="43.01803" lon="-0.10082">
        <ele>514.92</ele>
        <time>2013-12-21T13:38:27Z</time>
      </trkpt>
      <trkpt lat="43.01818" lon="-0.10094">
        <ele>514.92</ele>
        <time>2013-12-21T13:38:34Z</time>
      </trkpt>
      <trkpt lat="43.01836" lon="-0.10103">
        <ele>515.88</ele>
        <time>2013-12-21T13:38:43Z</time>
      </trkpt>
      <trkpt lat="43.01839" lon="-0.10104">
        <ele>516.37</ele>
        <time>2013-12-21T13:38:45Z</time>
      </trkpt>
      <trkpt lat="43.0185" lon="-0.10106">
        <ele>516.85</ele>
        <time>2013-12-21T13:38:50Z</time>
      </trkpt>
      <trkpt lat="43.01881" lon="-0.10109">
        <ele>514.92</ele>
        <time>2013-12-21T13:38:59Z</time>
      </trkpt>
      <trkpt lat="43.01884" lon="-0.10111">
        <ele>514.44</ele>
        <time>2013-12-21T13:39:00Z</time>
      </trkpt>
      <trkpt lat="43.01907" lon="-0.1013">
        <ele>511.08</ele>
        <time>2013-12-21T13:39:05Z</time>
      </trkpt>
      <trkpt lat="43.01919" lon="-0.1014">
        <ele>509.64</ele>
        <time>2013-12-21T13:39:12Z</time>
      </trkpt>
      <trkpt lat="43.01932" lon="-0.10147">
        <ele>509.64</ele>
        <time>2013-12-21T13:39:43Z</time>
      </trkpt>
      <trkpt lat="43.01936" lon="-0.10146">
        <ele>509.16</ele>
        <time>2013-12-21T13:40:14Z</time>
      </trkpt>
      <trkpt lat="43.01935" lon="-0.10148">
        <ele>509.16</ele>
        <time>2013-12-21T13:40:49Z</time>
      </trkpt>
      <trkpt lat="43.01934" lon="-0.10149">
        <ele>509.16</ele>
        <time>2013-12-21T13:41:25Z</time>
      </trkpt>
      <trkpt lat="43.01935" lon="-0.10149">
        <ele>509.16</ele>
        <time>2013-12-21T13:41:45Z</time>
      </trkpt>
      <trkpt lat="43.01939" lon="-0.10151">
        <ele>508.67</ele>
        <time>2013-12-21T13:42:02Z</time>
      </trkpt>
      <trkpt lat="43.0195" lon="-0.10154">
        <ele>507.71</ele>
        <time>2013-12-21T13:42:09Z</time>
      </trkpt>
      <trkpt lat="43.01972" lon="-0.10163">
        <ele>507.23</ele>
        <time>2013-12-21T13:42:19Z</time>
      </trkpt>
      <trkpt lat="43.01978" lon="-0.10155">
        <ele>505.31</ele>
        <time>2013-12-21T13:42:22Z</time>
      </trkpt>
      <trkpt lat="43.01995" lon="-0.10147">
        <ele>501.95</ele>
        <time>2013-12-21T13:42:27Z</time>
      </trkpt>
      <trkpt lat="43.02016" lon="-0.10153">
        <ele>498.58</ele>
        <time>2013-12-21T13:42:33Z</time>
      </trkpt>
      <trkpt lat="43.02025" lon="-0.10158">
        <ele>496.18</ele>
        <time>2013-12-21T13:42:35Z</time>
      </trkpt>
      <trkpt lat="43.02048" lon="-0.10148">
        <ele>491.85</ele>
        <time>2013-12-21T13:42:39Z</time>
      </trkpt>
      <trkpt lat="43.02053" lon="-0.10145">
        <ele>491.37</ele>
        <time>2013-12-21T13:42:40Z</time>
      </trkpt>
      <trkpt lat="43.02063" lon="-0.1014">
        <ele>489.93</ele>
        <time>2013-12-21T13:42:42Z</time>
      </trkpt>
      <trkpt lat="43.02067" lon="-0.10139">
        <ele>488.97</ele>
        <time>2013-12-21T13:42:44Z</time>
      </trkpt>
      <trkpt lat="43.02091" lon="-0.10164">
        <ele>485.6</ele>
        <time>2013-12-21T13:42:50Z</time>
      </trkpt>
      <trkpt lat="43.02114" lon="-0.10173">
        <ele>482.24</ele>
        <time>2013-12-21T13:42:53Z</time>
      </trkpt>
      <trkpt lat="43.02123" lon="-0.10175">
        <ele>482.24</ele>
        <time>2013-12-21T13:42:54Z</time>
      </trkpt>
      <trkpt lat="43.02144" lon="-0.10183">
        <ele>485.6</ele>
        <time>2013-12-21T13:42:57Z</time>
      </trkpt>
      <trkpt lat="43.02153" lon="-0.10188">
        <ele>486.56</ele>
        <time>2013-12-21T13:42:59Z</time>
      </trkpt>
      <trkpt lat="43.0216" lon="-0.10192">
        <ele>487.05</ele>
        <time>2013-12-21T13:43:01Z</time>
      </trkpt>
      <trkpt lat="43.02168" lon="-0.10211">
        <ele>489.45</ele>
        <time>2013-12-21T13:43:10Z</time>
      </trkpt>
      <trkpt lat="43.02175" lon="-0.10217">
        <ele>490.89</ele>
        <time>2013-12-21T13:43:15Z</time>
      </trkpt>
      <trkpt lat="43.02198" lon="-0.10226">
        <ele>492.33</ele>
        <time>2013-12-21T13:43:27Z</time>
      </trkpt>
      <trkpt lat="43.02201" lon="-0.10228">
        <ele>492.33</ele>
        <time>2013-12-21T13:43:29Z</time>
      </trkpt>
      <trkpt lat="43.02213" lon="-0.10242">
        <ele>492.81</ele>
        <time>2013-12-21T13:43:38Z</time>
      </trkpt>
      <trkpt lat="43.02221" lon="-0.10256">
        <ele>492.81</ele>
        <time>2013-12-21T13:43:43Z</time>
      </trkpt>
      <trkpt lat="43.02227" lon="-0.10263">
        <ele>492.81</ele>
        <time>2013-12-21T13:43:46Z</time>
      </trkpt>
      <trkpt lat="43.02244" lon="-0.10273">
        <ele>493.29</ele>
        <time>2013-12-21T13:43:55Z</time>
      </trkpt>
      <trkpt lat="43.02264" lon="-0.10275">
        <ele>495.22</ele>
        <time>2013-12-21T13:44:06Z</time>
      </trkpt>
      <trkpt lat="43.02265" lon="-0.10276">
        <ele>495.22</ele>
        <time>2013-12-21T13:44:07Z</time>
      </trkpt>
      <trkpt lat="43.02277" lon="-0.10291">
        <ele>497.62</ele>
        <time>2013-12-21T13:44:15Z</time>
      </trkpt>
      <trkpt lat="43.02276" lon="-0.10302">
        <ele>498.58</ele>
        <time>2013-12-21T13:44:20Z</time>
      </trkpt>
      <trkpt lat="43.02278" lon="-0.10314">
        <ele>499.54</ele>
        <time>2013-12-21T13:44:24Z</time>
      </trkpt>
      <trkpt lat="43.02284" lon="-0.10334">
        <ele>500.5</ele>
        <time>2013-12-21T13:44:30Z</time>
      </trkpt>
      <trkpt lat="43.02286" lon="-0.10342">
        <ele>500.98</ele>
        <time>2013-12-21T13:44:32Z</time>
      </trkpt>
      <trkpt lat="43.02286" lon="-0.10349">
        <ele>500.98</ele>
        <time>2013-12-21T13:44:34Z</time>
      </trkpt>
      <trkpt lat="43.02293" lon="-0.10366">
        <ele>500.98</ele>
        <time>2013-12-21T13:44:40Z</time>
      </trkpt>
      <trkpt lat="43.02307" lon="-0.10374">
        <ele>502.91</ele>
        <time>2013-12-21T13:44:49Z</time>
      </trkpt>
      <trkpt lat="43.02331" lon="-0.10372">
        <ele>503.39</ele>
        <time>2013-12-21T13:45:02Z</time>
      </trkpt>
      <trkpt lat="43.02356" lon="-0.10364">
        <ele>503.39</ele>
        <time>2013-12-21T13:45:15Z</time>
      </trkpt>
      <trkpt lat="43.0239" lon="-0.10352">
        <ele>502.43</ele>
        <time>2013-12-21T13:45:25Z</time>
      </trkpt>
      <trkpt lat="43.0241" lon="-0.10349">
        <ele>500.02</ele>
        <time>2013-12-21T13:45:29Z</time>
      </trkpt>
      <trkpt lat="43.02414" lon="-0.10347">
        <ele>499.54</ele>
        <time>2013-12-21T13:45:30Z</time>
      </trkpt>
      <trkpt lat="43.02418" lon="-0.10345">
        <ele>499.54</ele>
        <time>2013-12-21T13:45:31Z</time>
      </trkpt>
      <trkpt lat="43.02438" lon="-0.10324">
        <ele>498.1</ele>
        <time>2013-12-21T13:45:39Z</time>
      </trkpt>
      <trkpt lat="43.02445" lon="-0.10319">
        <ele>499.54</ele>
        <time>2013-12-21T13:45:43Z</time>
      </trkpt>
      <trkpt lat="43.02446" lon="-0.1032">
        <ele>500.02</ele>
        <time>2013-12-21T13:45:44Z</time>
      </trkpt>
      <trkpt lat="43.02447" lon="-0.10319">
        <ele>499.54</ele>
        <time>2013-12-21T13:45:45Z</time>
      </trkpt>
      <trkpt lat="43.02451" lon="-0.10316">
        <ele>500.02</ele>
        <time>2013-12-21T13:45:48Z</time>
      </trkpt>
      <trkpt lat="43.02453" lon="-0.10314">
        <ele>500.02</ele>
        <time>2013-12-21T13:45:49Z</time>
      </trkpt>
      <trkpt lat="43.02454" lon="-0.1031">
        <ele>500.02</ele>
        <time>2013-12-21T13:45:51Z</time>
      </trkpt>
      <trkpt lat="43.02456" lon="-0.10308">
        <ele>500.5</ele>
        <time>2013-12-21T13:45:52Z</time>
      </trkpt>
      <trkpt lat="43.02457" lon="-0.10307">
        <ele>500.5</ele>
        <time>2013-12-21T13:45:53Z</time>
      </trkpt>
      <trkpt lat="43.02459" lon="-0.10306">
        <ele>500.5</ele>
        <time>2013-12-21T13:45:54Z</time>
      </trkpt>
      <trkpt lat="43.02461" lon="-0.10305">
        <ele>500.5</ele>
        <time>2013-12-21T13:45:55Z</time>
      </trkpt>
      <trkpt lat="43.02463" lon="-0.10304">
        <ele>500.02</ele>
        <time>2013-12-21T13:45:56Z</time>
      </trkpt>
      <trkpt lat="43.02465" lon="-0.10303">
        <ele>500.5</ele>
        <time>2013-12-21T13:45:57Z</time>
      </trkpt>
      <trkpt lat="43.02467" lon="-0.10303">
        <ele>500.5</ele>
        <time>2013-12-21T13:45:58Z</time>
      </trkpt>
      <trkpt lat="43.0247" lon="-0.10302">
        <ele>500.02</ele>
        <time>2013-12-21T13:45:59Z</time>
      </trkpt>
      <trkpt lat="43.02473" lon="-0.103">
        <ele>500.5</ele>
        <time>2013-12-21T13:46:00Z</time>
      </trkpt>
      <trkpt lat="43.02477" lon="-0.10298">
        <ele>500.02</ele>
        <time>2013-12-21T13:46:01Z</time>
      </trkpt>
      <trkpt lat="43.0248" lon="-0.10298">
        <ele>500.02</ele>
        <time>2013-12-21T13:46:02Z</time>
      </trkpt>
      <trkpt lat="43.02484" lon="-0.10298">
        <ele>499.54</ele>
        <time>2013-12-21T13:46:03Z</time>
      </trkpt>
      <trkpt lat="43.02487" lon="-0.10298">
        <ele>499.06</ele>
        <time>2013-12-21T13:46:04Z</time>
      </trkpt>
      <trkpt lat="43.0249" lon="-0.10299">
        <ele>498.58</ele>
        <time>2013-12-21T13:46:05Z</time>
      </trkpt>
      <trkpt lat="43.02494" lon="-0.103">
        <ele>498.58</ele>
        <time>2013-12-21T13:46:06Z</time>
      </trkpt>
      <trkpt lat="43.02497" lon="-0.103">
        <ele>498.1</ele>
        <time>2013-12-21T13:46:07Z</time>
      </trkpt>
      <trkpt lat="43.025" lon="-0.10301">
        <ele>498.1</ele>
        <time>2013-12-21T13:46:08Z</time>
      </trkpt>
      <trkpt lat="43.02503" lon="-0.10302">
        <ele>498.58</ele>
        <time>2013-12-21T13:46:09Z</time>
      </trkpt>
      <trkpt lat="43.02505" lon="-0.10301">
        <ele>498.1</ele>
        <time>2013-12-21T13:46:10Z</time>
      </trkpt>
      <trkpt lat="43.02507" lon="-0.10301">
        <ele>499.06</ele>
        <time>2013-12-21T13:46:11Z</time>
      </trkpt>
      <trkpt lat="43.02509" lon="-0.10301">
        <ele>499.06</ele>
        <time>2013-12-21T13:46:12Z</time>
      </trkpt>
      <trkpt lat="43.02518" lon="-0.10299">
        <ele>498.58</ele>
        <time>2013-12-21T13:46:17Z</time>
      </trkpt>
      <trkpt lat="43.02521" lon="-0.10298">
        <ele>498.1</ele>
        <time>2013-12-21T13:46:18Z</time>
      </trkpt>
      <trkpt lat="43.02522" lon="-0.10296">
        <ele>498.58</ele>
        <time>2013-12-21T13:46:19Z</time>
      </trkpt>
      <trkpt lat="43.02525" lon="-0.10294">
        <ele>499.06</ele>
        <time>2013-12-21T13:46:21Z</time>
      </trkpt>
      <trkpt lat="43.02526" lon="-0.10295">
        <ele>499.06</ele>
        <time>2013-12-21T13:46:22Z</time>
      </trkpt>
      <trkpt lat="43.02528" lon="-0.10294">
        <ele>499.06</ele>
        <time>2013-12-21T13:46:23Z</time>
      </trkpt>
      <trkpt lat="43.02535" lon="-0.10291">
        <ele>500.02</ele>
        <time>2013-12-21T13:46:31Z</time>
      </trkpt>
      <trkpt lat="43.02536" lon="-0.1029">
        <ele>500.5</ele>
        <time>2013-12-21T13:46:32Z</time>
      </trkpt>
      <trkpt lat="43.02551" lon="-0.10268">
        <ele>500.98</ele>
        <time>2013-12-21T13:46:42Z</time>
      </trkpt>
      <trkpt lat="43.02563" lon="-0.10255">
        <ele>502.43</ele>
        <time>2013-12-21T13:46:50Z</time>
      </trkpt>
      <trkpt lat="43.02579" lon="-0.1025">
        <ele>501.95</ele>
        <time>2013-12-21T13:46:56Z</time>
      </trkpt>
      <trkpt lat="43.02581" lon="-0.10248">
        <ele>500.98</ele>
        <time>2013-12-21T13:46:57Z</time>
      </trkpt>
      <trkpt lat="43.02582" lon="-0.10248">
        <ele>500.98</ele>
        <time>2013-12-21T13:46:58Z</time>
      </trkpt>
      <trkpt lat="43.02584" lon="-0.10246">
        <ele>500.5</ele>
        <time>2013-12-21T13:47:15Z</time>
      </trkpt>
      <trkpt lat="43.02594" lon="-0.10237">
        <ele>497.14</ele>
        <time>2013-12-21T13:47:21Z</time>
      </trkpt>
      <trkpt lat="43.02598" lon="-0.10233">
        <ele>495.7</ele>
        <time>2013-12-21T13:47:22Z</time>
      </trkpt>
      <trkpt lat="43.02602" lon="-0.10229">
        <ele>494.74</ele>
        <time>2013-12-21T13:47:23Z</time>
      </trkpt>
      <trkpt lat="43.02624" lon="-0.10212">
        <ele>495.22</ele>
        <time>2013-12-21T13:47:29Z</time>
      </trkpt>
      <trkpt lat="43.02632" lon="-0.10207">
        <ele>495.7</ele>
        <time>2013-12-21T13:47:32Z</time>
      </trkpt>
      <trkpt lat="43.02633" lon="-0.10205">
        <ele>495.7</ele>
        <time>2013-12-21T13:47:33Z</time>
      </trkpt>
      <trkpt lat="43.02634" lon="-0.10203">
        <ele>496.18</ele>
        <time>2013-12-21T13:47:34Z</time>
      </trkpt>
      <trkpt lat="43.02636" lon="-0.10201">
        <ele>496.18</ele>
        <time>2013-12-21T13:47:35Z</time>
      </trkpt>
      <trkpt lat="43.02638" lon="-0.10199">
        <ele>496.66</ele>
        <time>2013-12-21T13:47:36Z</time>
      </trkpt>
      <trkpt lat="43.02644" lon="-0.10185">
        <ele>496.66</ele>
        <time>2013-12-21T13:47:41Z</time>
      </trkpt>
      <trkpt lat="43.02646" lon="-0.1018">
        <ele>494.74</ele>
        <time>2013-12-21T13:47:42Z</time>
      </trkpt>
      <trkpt lat="43.02649" lon="-0.10174">
        <ele>493.29</ele>
        <time>2013-12-21T13:47:43Z</time>
      </trkpt>
      <trkpt lat="43.02652" lon="-0.10167">
        <ele>493.77</ele>
        <time>2013-12-21T13:47:44Z</time>
      </trkpt>
      <trkpt lat="43.02654" lon="-0.10162">
        <ele>493.77</ele>
        <time>2013-12-21T13:47:45Z</time>
      </trkpt>
      <trkpt lat="43.02656" lon="-0.10157">
        <ele>494.74</ele>
        <time>2013-12-21T13:47:46Z</time>
      </trkpt>
      <trkpt lat="43.02668" lon="-0.10125">
        <ele>494.26</ele>
        <time>2013-12-21T13:47:53Z</time>
      </trkpt>
      <trkpt lat="43.02669" lon="-0.10118">
        <ele>493.29</ele>
        <time>2013-12-21T13:47:54Z</time>
      </trkpt>
      <trkpt lat="43.02671" lon="-0.10112">
        <ele>492.81</ele>
        <time>2013-12-21T13:47:55Z</time>
      </trkpt>
      <trkpt lat="43.02674" lon="-0.10106">
        <ele>492.33</ele>
        <time>2013-12-21T13:47:56Z</time>
      </trkpt>
      <trkpt lat="43.02677" lon="-0.10099">
        <ele>491.37</ele>
        <time>2013-12-21T13:47:57Z</time>
      </trkpt>
      <trkpt lat="43.02679" lon="-0.10091">
        <ele>491.37</ele>
        <time>2013-12-21T13:47:58Z</time>
      </trkpt>
      <trkpt lat="43.0268" lon="-0.10083">
        <ele>490.89</ele>
        <time>2013-12-21T13:47:59Z</time>
      </trkpt>
      <trkpt lat="43.02679" lon="-0.10076">
        <ele>490.89</ele>
        <time>2013-12-21T13:48:00Z</time>
      </trkpt>
      <trkpt lat="43.0268" lon="-0.10071">
        <ele>492.33</ele>
        <time>2013-12-21T13:48:01Z</time>
      </trkpt>
      <trkpt lat="43.0268" lon="-0.10067">
        <ele>492.81</ele>
        <time>2013-12-21T13:48:02Z</time>
      </trkpt>
      <trkpt lat="43.0268" lon="-0.10063">
        <ele>494.26</ele>
        <time>2013-12-21T13:48:03Z</time>
      </trkpt>
      <trkpt lat="43.0268" lon="-0.1006">
        <ele>494.26</ele>
        <time>2013-12-21T13:48:04Z</time>
      </trkpt>
      <trkpt lat="43.02681" lon="-0.10056">
        <ele>494.74</ele>
        <time>2013-12-21T13:48:05Z</time>
      </trkpt>
      <trkpt lat="43.02681" lon="-0.10053">
        <ele>495.22</ele>
        <time>2013-12-21T13:48:06Z</time>
      </trkpt>
      <trkpt lat="43.02682" lon="-0.10032">
        <ele>494.74</ele>
        <time>2013-12-21T13:48:13Z</time>
      </trkpt>
      <trkpt lat="43.02682" lon="-0.10028">
        <ele>492.81</ele>
        <time>2013-12-21T13:48:14Z</time>
      </trkpt>
      <trkpt lat="43.02681" lon="-0.10021">
        <ele>490.89</ele>
        <time>2013-12-21T13:48:15Z</time>
      </trkpt>
      <trkpt lat="43.0268" lon="-0.10011">
        <ele>489.45</ele>
        <time>2013-12-21T13:48:16Z</time>
      </trkpt>
      <trkpt lat="43.0268" lon="-0.1">
        <ele>488.49</ele>
        <time>2013-12-21T13:48:17Z</time>
      </trkpt>
      <trkpt lat="43.0268" lon="-0.0999">
        <ele>488.01</ele>
        <time>2013-12-21T13:48:18Z</time>
      </trkpt>
      <trkpt lat="43.02679" lon="-0.09983">
        <ele>488.49</ele>
        <time>2013-12-21T13:48:19Z</time>
      </trkpt>
      <trkpt lat="43.02673" lon="-0.09965">
        <ele>487.53</ele>
        <time>2013-12-21T13:48:28Z</time>
      </trkpt>
      <trkpt lat="43.02672" lon="-0.09953">
        <ele>487.53</ele>
        <time>2013-12-21T13:48:57Z</time>
      </trkpt>
      <trkpt lat="43.02671" lon="-0.09952">
        <ele>487.53</ele>
        <time>2013-12-21T13:49:03Z</time>
      </trkpt>
      <trkpt lat="43.02667" lon="-0.09949">
        <ele>486.56</ele>
        <time>2013-12-21T13:49:05Z</time>
      </trkpt>
      <trkpt lat="43.02664" lon="-0.0993">
        <ele>483.2</ele>
        <time>2013-12-21T13:49:09Z</time>
      </trkpt>
      <trkpt lat="43.02666" lon="-0.09923">
        <ele>482.24</ele>
        <time>2013-12-21T13:49:10Z</time>
      </trkpt>
      <trkpt lat="43.0267" lon="-0.09917">
        <ele>481.28</ele>
        <time>2013-12-21T13:49:11Z</time>
      </trkpt>
      <trkpt lat="43.02674" lon="-0.09912">
        <ele>479.84</ele>
        <time>2013-12-21T13:49:12Z</time>
      </trkpt>
      <trkpt lat="43.02678" lon="-0.09906">
        <ele>479.35</ele>
        <time>2013-12-21T13:49:13Z</time>
      </trkpt>
      <trkpt lat="43.02682" lon="-0.09902">
        <ele>479.35</ele>
        <time>2013-12-21T13:49:14Z</time>
      </trkpt>
      <trkpt lat="43.02683" lon="-0.09897">
        <ele>478.87</ele>
        <time>2013-12-21T13:49:15Z</time>
      </trkpt>
      <trkpt lat="43.02685" lon="-0.09892">
        <ele>478.39</ele>
        <time>2013-12-21T13:49:16Z</time>
      </trkpt>
      <trkpt lat="43.02686" lon="-0.09882">
        <ele>478.87</ele>
        <time>2013-12-21T13:49:18Z</time>
      </trkpt>
      <trkpt lat="43.02686" lon="-0.09878">
        <ele>478.87</ele>
        <time>2013-12-21T13:49:19Z</time>
      </trkpt>
      <trkpt lat="43.02686" lon="-0.09873">
        <ele>478.87</ele>
        <time>2013-12-21T13:49:20Z</time>
      </trkpt>
      <trkpt lat="43.0268" lon="-0.09863">
        <ele>478.39</ele>
        <time>2013-12-21T13:49:22Z</time>
      </trkpt>
      <trkpt lat="43.02676" lon="-0.0986">
        <ele>477.43</ele>
        <time>2013-12-21T13:49:23Z</time>
      </trkpt>
      <trkpt lat="43.02671" lon="-0.09858">
        <ele>476.95</ele>
        <time>2013-12-21T13:49:24Z</time>
      </trkpt>
      <trkpt lat="43.02667" lon="-0.09854">
        <ele>476.47</ele>
        <time>2013-12-21T13:49:25Z</time>
      </trkpt>
      <trkpt lat="43.02661" lon="-0.09851">
        <ele>475.51</ele>
        <time>2013-12-21T13:49:26Z</time>
      </trkpt>
      <trkpt lat="43.02648" lon="-0.09847">
        <ele>473.59</ele>
        <time>2013-12-21T13:49:28Z</time>
      </trkpt>
      <trkpt lat="43.02636" lon="-0.0985">
        <ele>472.63</ele>
        <time>2013-12-21T13:49:30Z</time>
      </trkpt>
      <trkpt lat="43.0263" lon="-0.09852">
        <ele>472.63</ele>
        <time>2013-12-21T13:49:31Z</time>
      </trkpt>
      <trkpt lat="43.02624" lon="-0.09853">
        <ele>471.18</ele>
        <time>2013-12-21T13:49:32Z</time>
      </trkpt>
      <trkpt lat="43.02618" lon="-0.09856">
        <ele>471.66</ele>
        <time>2013-12-21T13:49:33Z</time>
      </trkpt>
      <trkpt lat="43.02613" lon="-0.09858">
        <ele>471.66</ele>
        <time>2013-12-21T13:49:34Z</time>
      </trkpt>
      <trkpt lat="43.02609" lon="-0.0986">
        <ele>471.18</ele>
        <time>2013-12-21T13:49:35Z</time>
      </trkpt>
      <trkpt lat="43.02605" lon="-0.09863">
        <ele>472.14</ele>
        <time>2013-12-21T13:49:36Z</time>
      </trkpt>
      <trkpt lat="43.02602" lon="-0.09866">
        <ele>471.66</ele>
        <time>2013-12-21T13:49:37Z</time>
      </trkpt>
      <trkpt lat="43.026" lon="-0.09869">
        <ele>472.14</ele>
        <time>2013-12-21T13:49:38Z</time>
      </trkpt>
      <trkpt lat="43.02598" lon="-0.09869">
        <ele>472.14</ele>
        <time>2013-12-21T13:49:39Z</time>
      </trkpt>
      <trkpt lat="43.02595" lon="-0.09869">
        <ele>471.66</ele>
        <time>2013-12-21T13:49:40Z</time>
      </trkpt>
      <trkpt lat="43.02592" lon="-0.0987">
        <ele>471.18</ele>
        <time>2013-12-21T13:49:41Z</time>
      </trkpt>
      <trkpt lat="43.02591" lon="-0.09869">
        <ele>471.18</ele>
        <time>2013-12-21T13:49:43Z</time>
      </trkpt>
      <trkpt lat="43.02593" lon="-0.09851">
        <ele>470.22</ele>
        <time>2013-12-21T13:49:47Z</time>
      </trkpt>
      <trkpt lat="43.02597" lon="-0.09839">
        <ele>469.74</ele>
        <time>2013-12-21T13:49:49Z</time>
      </trkpt>
      <trkpt lat="43.02598" lon="-0.09834">
        <ele>468.78</ele>
        <time>2013-12-21T13:49:50Z</time>
      </trkpt>
      <trkpt lat="43.026" lon="-0.09829">
        <ele>468.3</ele>
        <time>2013-12-21T13:49:51Z</time>
      </trkpt>
      <trkpt lat="43.026" lon="-0.09826">
        <ele>466.86</ele>
        <time>2013-12-21T13:49:52Z</time>
      </trkpt>
      <trkpt lat="43.02601" lon="-0.09821">
        <ele>465.42</ele>
        <time>2013-12-21T13:49:53Z</time>
      </trkpt>
      <trkpt lat="43.02601" lon="-0.09815">
        <ele>463.97</ele>
        <time>2013-12-21T13:49:54Z</time>
      </trkpt>
      <trkpt lat="43.02601" lon="-0.09809">
        <ele>462.53</ele>
        <time>2013-12-21T13:49:55Z</time>
      </trkpt>
      <trkpt lat="43.02603" lon="-0.09802">
        <ele>461.09</ele>
        <time>2013-12-21T13:49:56Z</time>
      </trkpt>
      <trkpt lat="43.02605" lon="-0.09796">
        <ele>460.13</ele>
        <time>2013-12-21T13:49:57Z</time>
      </trkpt>
      <trkpt lat="43.02612" lon="-0.0978">
        <ele>457.72</ele>
        <time>2013-12-21T13:49:59Z</time>
      </trkpt>
      <trkpt lat="43.02616" lon="-0.09774">
        <ele>455.8</ele>
        <time>2013-12-21T13:50:00Z</time>
      </trkpt>
      <trkpt lat="43.0262" lon="-0.09767">
        <ele>454.36</ele>
        <time>2013-12-21T13:50:01Z</time>
      </trkpt>
      <trkpt lat="43.02622" lon="-0.09758">
        <ele>452.44</ele>
        <time>2013-12-21T13:50:02Z</time>
      </trkpt>
      <trkpt lat="43.02623" lon="-0.09749">
        <ele>450.52</ele>
        <time>2013-12-21T13:50:03Z</time>
      </trkpt>
      <trkpt lat="43.02624" lon="-0.0974">
        <ele>449.55</ele>
        <time>2013-12-21T13:50:04Z</time>
      </trkpt>
      <trkpt lat="43.02625" lon="-0.09734">
        <ele>449.07</ele>
        <time>2013-12-21T13:50:05Z</time>
      </trkpt>
      <trkpt lat="43.02625" lon="-0.09714">
        <ele>445.23</ele>
        <time>2013-12-21T13:50:10Z</time>
      </trkpt>
      <trkpt lat="43.02634" lon="-0.09693">
        <ele>441.38</ele>
        <time>2013-12-21T13:50:14Z</time>
      </trkpt>
      <trkpt lat="43.02634" lon="-0.09682">
        <ele>440.42</ele>
        <time>2013-12-21T13:50:22Z</time>
      </trkpt>
      <trkpt lat="43.02633" lon="-0.09676">
        <ele>439.94</ele>
        <time>2013-12-21T13:50:45Z</time>
      </trkpt>
      <trkpt lat="43.02633" lon="-0.09673">
        <ele>439.94</ele>
        <time>2013-12-21T13:51:14Z</time>
      </trkpt>
      <trkpt lat="43.02633" lon="-0.0967">
        <ele>440.42</ele>
        <time>2013-12-21T13:51:43Z</time>
      </trkpt>
      <trkpt lat="43.02632" lon="-0.0967">
        <ele>440.9</ele>
        <time>2013-12-21T13:52:06Z</time>
      </trkpt>
      <trkpt lat="43.02632" lon="-0.09671">
        <ele>440.9</ele>
        <time>2013-12-21T13:52:34Z</time>
      </trkpt>
      <trkpt lat="43.02632" lon="-0.09671">
        <ele>440.9</ele>
        <time>2013-12-21T13:52:58Z</time>
      </trkpt>
      <trkpt lat="43.02633" lon="-0.09671">
        <ele>441.38</ele>
        <time>2013-12-21T13:53:18Z</time>
      </trkpt>
      <trkpt lat="43.02634" lon="-0.09663">
        <ele>439.94</ele>
        <time>2013-12-21T13:53:26Z</time>
      </trkpt>
      <trkpt lat="43.02641" lon="-0.0965">
        <ele>436.1</ele>
        <time>2013-12-21T13:53:30Z</time>
      </trkpt>
      <trkpt lat="43.02655" lon="-0.09633">
        <ele>433.21</ele>
        <time>2013-12-21T13:53:33Z</time>
      </trkpt>
      <trkpt lat="43.02666" lon="-0.09622">
        <ele>432.25</ele>
        <time>2013-12-21T13:53:35Z</time>
      </trkpt>
      <trkpt lat="43.02694" lon="-0.09593">
        <ele>430.33</ele>
        <time>2013-12-21T13:53:40Z</time>
      </trkpt>
      <trkpt lat="43.02698" lon="-0.09561">
        <ele>426</ele>
        <time>2013-12-21T13:53:45Z</time>
      </trkpt>
      <trkpt lat="43.02687" lon="-0.09564">
        <ele>426.48</ele>
        <time>2013-12-21T13:53:50Z</time>
      </trkpt>
      <trkpt lat="43.02663" lon="-0.09583">
        <ele>426.48</ele>
        <time>2013-12-21T13:54:03Z</time>
      </trkpt>
      <trkpt lat="43.02628" lon="-0.09608">
        <ele>426</ele>
        <time>2013-12-21T13:54:18Z</time>
      </trkpt>
      <trkpt lat="43.0262" lon="-0.09609">
        <ele>424.56</ele>
        <time>2013-12-21T13:54:20Z</time>
      </trkpt>
      <trkpt lat="43.02598" lon="-0.09599">
        <ele>421.19</ele>
        <time>2013-12-21T13:54:26Z</time>
      </trkpt>
      <trkpt lat="43.02603" lon="-0.09581">
        <ele>420.71</ele>
        <time>2013-12-21T13:54:29Z</time>
      </trkpt>
      <trkpt lat="43.02604" lon="-0.09537">
        <ele>419.27</ele>
        <time>2013-12-21T13:54:39Z</time>
      </trkpt>
      <trkpt lat="43.0259" lon="-0.09524">
        <ele>419.27</ele>
        <time>2013-12-21T13:54:43Z</time>
      </trkpt>
      <trkpt lat="43.0258" lon="-0.09513">
        <ele>418.79</ele>
        <time>2013-12-21T13:54:46Z</time>
      </trkpt>
      <trkpt lat="43.02536" lon="-0.09471">
        <ele>416.87</ele>
        <time>2013-12-21T13:55:00Z</time>
      </trkpt>
      <trkpt lat="43.02531" lon="-0.09466">
        <ele>416.87</ele>
        <time>2013-12-21T13:55:02Z</time>
      </trkpt>
      <trkpt lat="43.02506" lon="-0.09478">
        <ele>416.39</ele>
        <time>2013-12-21T13:55:13Z</time>
      </trkpt>
      <trkpt lat="43.02506" lon="-0.09479">
        <ele>416.87</ele>
        <time>2013-12-21T13:55:19Z</time>
      </trkpt>
      <trkpt lat="43.02502" lon="-0.09477">
        <ele>415.91</ele>
        <time>2013-12-21T13:55:31Z</time>
      </trkpt>
      <trkpt lat="43.025" lon="-0.09477">
        <ele>416.39</ele>
        <time>2013-12-21T13:56:04Z</time>
      </trkpt>
      <trkpt lat="43.02501" lon="-0.09478">
        <ele>416.39</ele>
        <time>2013-12-21T13:56:40Z</time>
      </trkpt>
      <trkpt lat="43.02502" lon="-0.09477">
        <ele>416.39</ele>
        <time>2013-12-21T13:57:12Z</time>
      </trkpt>
      <trkpt lat="43.02502" lon="-0.09478">
        <ele>416.87</ele>
        <time>2013-12-21T13:57:50Z</time>
      </trkpt>
      <trkpt lat="43.02502" lon="-0.09478">
        <ele>416.87</ele>
        <time>2013-12-21T13:58:23Z</time>
      </trkpt>
      <trkpt lat="43.02501" lon="-0.09478">
        <ele>416.87</ele>
        <time>2013-12-21T13:58:57Z</time>
      </trkpt>
      <trkpt lat="43.025" lon="-0.09481">
        <ele>418.31</ele>
        <time>2013-12-21T13:59:27Z</time>
      </trkpt>
      <trkpt lat="43.025" lon="-0.09482">
        <ele>417.83</ele>
        <time>2013-12-21T13:59:32Z</time>
      </trkpt>
      <trkpt lat="43.02486" lon="-0.09492">
        <ele>417.35</ele>
        <time>2013-12-21T13:59:42Z</time>
      </trkpt>
      <trkpt lat="43.02487" lon="-0.09479">
        <ele>417.83</ele>
        <time>2013-12-21T13:59:47Z</time>
      </trkpt>
      <trkpt lat="43.02523" lon="-0.09434">
        <ele>418.31</ele>
        <time>2013-12-21T14:00:03Z</time>
      </trkpt>
      <trkpt lat="43.02558" lon="-0.09399">
        <ele>419.27</ele>
        <time>2013-12-21T14:00:18Z</time>
      </trkpt>
      <trkpt lat="43.02589" lon="-0.09375">
        <ele>420.23</ele>
        <time>2013-12-21T14:00:31Z</time>
      </trkpt>
      <trkpt lat="43.02634" lon="-0.09341">
        <ele>420.23</ele>
        <time>2013-12-21T14:00:47Z</time>
      </trkpt>
      <trkpt lat="43.02643" lon="-0.09335">
        <ele>420.71</ele>
        <time>2013-12-21T14:00:50Z</time>
      </trkpt>
      <trkpt lat="43.02652" lon="-0.09341">
        <ele>420.23</ele>
        <time>2013-12-21T14:00:54Z</time>
      </trkpt>
      <trkpt lat="43.02669" lon="-0.09376">
        <ele>421.19</ele>
        <time>2013-12-21T14:01:06Z</time>
      </trkpt>
      <trkpt lat="43.0268" lon="-0.09397">
        <ele>422.16</ele>
        <time>2013-12-21T14:01:13Z</time>
      </trkpt>
      <trkpt lat="43.02697" lon="-0.09446">
        <ele>423.12</ele>
        <time>2013-12-21T14:01:25Z</time>
      </trkpt>
      <trkpt lat="43.02716" lon="-0.09493">
        <ele>422.64</ele>
        <time>2013-12-21T14:01:36Z</time>
      </trkpt>
      <trkpt lat="43.02745" lon="-0.09537">
        <ele>424.08</ele>
        <time>2013-12-21T14:01:49Z</time>
      </trkpt>
      <trkpt lat="43.02752" lon="-0.09539">
        <ele>424.56</ele>
        <time>2013-12-21T14:01:51Z</time>
      </trkpt>
      <trkpt lat="43.02758" lon="-0.09537">
        <ele>425.04</ele>
        <time>2013-12-21T14:01:53Z</time>
      </trkpt>
      <trkpt lat="43.02762" lon="-0.09505">
        <ele>425.04</ele>
        <time>2013-12-21T14:02:00Z</time>
      </trkpt>
      <trkpt lat="43.02774" lon="-0.09482">
        <ele>424.56</ele>
        <time>2013-12-21T14:02:05Z</time>
      </trkpt>
      <trkpt lat="43.02779" lon="-0.09472">
        <ele>424.56</ele>
        <time>2013-12-21T14:02:07Z</time>
      </trkpt>
      <trkpt lat="43.02784" lon="-0.09449">
        <ele>424.08</ele>
        <time>2013-12-21T14:02:11Z</time>
      </trkpt>
      <trkpt lat="43.02787" lon="-0.0943">
        <ele>423.6</ele>
        <time>2013-12-21T14:02:14Z</time>
      </trkpt>
      <trkpt lat="43.02788" lon="-0.09385">
        <ele>424.08</ele>
        <time>2013-12-21T14:02:22Z</time>
      </trkpt>
      <trkpt lat="43.02786" lon="-0.09364">
        <ele>424.08</ele>
        <time>2013-12-21T14:02:26Z</time>
      </trkpt>
      <trkpt lat="43.02806" lon="-0.09359">
        <ele>426</ele>
        <time>2013-12-21T14:02:34Z</time>
      </trkpt>
      <trkpt lat="43.0283" lon="-0.09361">
        <ele>427.44</ele>
        <time>2013-12-21T14:02:42Z</time>
      </trkpt>
      <trkpt lat="43.02855" lon="-0.0932">
        <ele>428.89</ele>
        <time>2013-12-21T14:02:55Z</time>
      </trkpt>
      <trkpt lat="43.02889" lon="-0.0928">
        <ele>429.37</ele>
        <time>2013-12-21T14:03:08Z</time>
      </trkpt>
      <trkpt lat="43.02933" lon="-0.0926">
        <ele>430.81</ele>
        <time>2013-12-21T14:03:23Z</time>
      </trkpt>
      <trkpt lat="43.02939" lon="-0.09259">
        <ele>432.25</ele>
        <time>2013-12-21T14:03:25Z</time>
      </trkpt>
      <trkpt lat="43.02974" lon="-0.09256">
        <ele>435.61</ele>
        <time>2013-12-21T14:03:38Z</time>
      </trkpt>
      <trkpt lat="43.02997" lon="-0.09274">
        <ele>437.54</ele>
        <time>2013-12-21T14:03:49Z</time>
      </trkpt>
      <trkpt lat="43.03015" lon="-0.09277">
        <ele>440.9</ele>
        <time>2013-12-21T14:03:59Z</time>
      </trkpt>
      <trkpt lat="43.03035" lon="-0.09271">
        <ele>443.31</ele>
        <time>2013-12-21T14:04:10Z</time>
      </trkpt>
      <trkpt lat="43.03053" lon="-0.09254">
        <ele>446.19</ele>
        <time>2013-12-21T14:04:22Z</time>
      </trkpt>
      <trkpt lat="43.03063" lon="-0.09244">
        <ele>447.15</ele>
        <time>2013-12-21T14:04:28Z</time>
      </trkpt>
      <trkpt lat="43.03072" lon="-0.09234">
        <ele>448.11</ele>
        <time>2013-12-21T14:04:33Z</time>
      </trkpt>
      <trkpt lat="43.03102" lon="-0.09206">
        <ele>449.55</ele>
        <time>2013-12-21T14:04:47Z</time>
      </trkpt>
      <trkpt lat="43.03125" lon="-0.09183">
        <ele>452.44</ele>
        <time>2013-12-21T14:04:59Z</time>
      </trkpt>
      <trkpt lat="43.0315" lon="-0.09151">
        <ele>453.88</ele>
        <time>2013-12-21T14:05:11Z</time>
      </trkpt>
      <trkpt lat="43.03167" lon="-0.09112">
        <ele>455.8</ele>
        <time>2013-12-21T14:05:23Z</time>
      </trkpt>
      <trkpt lat="43.03178" lon="-0.09079">
        <ele>458.21</ele>
        <time>2013-12-21T14:05:34Z</time>
      </trkpt>
      <trkpt lat="43.03179" lon="-0.09076">
        <ele>458.21</ele>
        <time>2013-12-21T14:05:35Z</time>
      </trkpt>
      <trkpt lat="43.03188" lon="-0.09038">
        <ele>461.57</ele>
        <time>2013-12-21T14:05:46Z</time>
      </trkpt>
      <trkpt lat="43.03197" lon="-0.09006">
        <ele>464.93</ele>
        <time>2013-12-21T14:05:55Z</time>
      </trkpt>
      <trkpt lat="43.03202" lon="-0.08968">
        <ele>466.86</ele>
        <time>2013-12-21T14:06:06Z</time>
      </trkpt>
      <trkpt lat="43.03207" lon="-0.08928">
        <ele>470.7</ele>
        <time>2013-12-21T14:06:18Z</time>
      </trkpt>
      <trkpt lat="43.03209" lon="-0.08885">
        <ele>473.59</ele>
        <time>2013-12-21T14:06:31Z</time>
      </trkpt>
      <trkpt lat="43.03213" lon="-0.08865">
        <ele>476.95</ele>
        <time>2013-12-21T14:06:37Z</time>
      </trkpt>
      <trkpt lat="43.0323" lon="-0.08832">
        <ele>479.84</ele>
        <time>2013-12-21T14:06:48Z</time>
      </trkpt>
      <trkpt lat="43.03253" lon="-0.08783">
        <ele>480.32</ele>
        <time>2013-12-21T14:07:02Z</time>
      </trkpt>
      <trkpt lat="43.03276" lon="-0.08725">
        <ele>481.76</ele>
        <time>2013-12-21T14:07:16Z</time>
      </trkpt>
      <trkpt lat="43.03289" lon="-0.08688">
        <ele>483.68</ele>
        <time>2013-12-21T14:07:26Z</time>
      </trkpt>
      <trkpt lat="43.03308" lon="-0.08633">
        <ele>484.64</ele>
        <time>2013-12-21T14:07:39Z</time>
      </trkpt>
      <trkpt lat="43.03316" lon="-0.08614">
        <ele>483.68</ele>
        <time>2013-12-21T14:07:43Z</time>
      </trkpt>
      <trkpt lat="43.03341" lon="-0.08575">
        <ele>482.72</ele>
        <time>2013-12-21T14:07:51Z</time>
      </trkpt>
      <trkpt lat="43.03352" lon="-0.08553">
        <ele>482.72</ele>
        <time>2013-12-21T14:07:55Z</time>
      </trkpt>
      <trkpt lat="43.03391" lon="-0.08517">
        <ele>480.32</ele>
        <time>2013-12-21T14:08:05Z</time>
      </trkpt>
      <trkpt lat="43.03394" lon="-0.08511">
        <ele>479.84</ele>
        <time>2013-12-21T14:08:06Z</time>
      </trkpt>
      <trkpt lat="43.03404" lon="-0.08485">
        <ele>479.84</ele>
        <time>2013-12-21T14:08:10Z</time>
      </trkpt>
      <trkpt lat="43.03412" lon="-0.08471">
        <ele>480.32</ele>
        <time>2013-12-21T14:08:13Z</time>
      </trkpt>
      <trkpt lat="43.0343" lon="-0.08447">
        <ele>480.8</ele>
        <time>2013-12-21T14:08:19Z</time>
      </trkpt>
      <trkpt lat="43.03431" lon="-0.08417">
        <ele>478.39</ele>
        <time>2013-12-21T14:08:25Z</time>
      </trkpt>
      <trkpt lat="43.03417" lon="-0.08394">
        <ele>475.03</ele>
        <time>2013-12-21T14:08:29Z</time>
      </trkpt>
      <trkpt lat="43.03414" lon="-0.08362">
        <ele>470.7</ele>
        <time>2013-12-21T14:08:34Z</time>
      </trkpt>
      <trkpt lat="43.03418" lon="-0.08352">
        <ele>471.66</ele>
        <time>2013-12-21T14:08:36Z</time>
      </trkpt>
      <trkpt lat="43.03425" lon="-0.0833">
        <ele>471.18</ele>
        <time>2013-12-21T14:08:40Z</time>
      </trkpt>
      <trkpt lat="43.03434" lon="-0.08297">
        <ele>469.74</ele>
        <time>2013-12-21T14:08:45Z</time>
      </trkpt>
      <trkpt lat="43.03448" lon="-0.08276">
        <ele>471.18</ele>
        <time>2013-12-21T14:08:50Z</time>
      </trkpt>
      <trkpt lat="43.03474" lon="-0.08207">
        <ele>473.59</ele>
        <time>2013-12-21T14:09:06Z</time>
      </trkpt>
      <trkpt lat="43.0349" lon="-0.08163">
        <ele>476.47</ele>
        <time>2013-12-21T14:09:17Z</time>
      </trkpt>
      <trkpt lat="43.03527" lon="-0.08116">
        <ele>477.43</ele>
        <time>2013-12-21T14:09:32Z</time>
      </trkpt>
      <trkpt lat="43.03555" lon="-0.08089">
        <ele>477.91</ele>
        <time>2013-12-21T14:09:42Z</time>
      </trkpt>
      <trkpt lat="43.03589" lon="-0.08068">
        <ele>478.87</ele>
        <time>2013-12-21T14:09:53Z</time>
      </trkpt>
      <trkpt lat="43.03603" lon="-0.08044">
        <ele>478.39</ele>
        <time>2013-12-21T14:09:59Z</time>
      </trkpt>
      <trkpt lat="43.03624" lon="-0.07994">
        <ele>481.28</ele>
        <time>2013-12-21T14:10:11Z</time>
      </trkpt>
      <trkpt lat="43.03631" lon="-0.07986">
        <ele>480.32</ele>
        <time>2013-12-21T14:10:13Z</time>
      </trkpt>
      <trkpt lat="43.03642" lon="-0.07978">
        <ele>478.87</ele>
        <time>2013-12-21T14:10:15Z</time>
      </trkpt>
      <trkpt lat="43.0366" lon="-0.07952">
        <ele>481.76</ele>
        <time>2013-12-21T14:10:21Z</time>
      </trkpt>
      <trkpt lat="43.03674" lon="-0.07946">
        <ele>483.2</ele>
        <time>2013-12-21T14:10:26Z</time>
      </trkpt>
      <trkpt lat="43.03697" lon="-0.07962">
        <ele>483.68</ele>
        <time>2013-12-21T14:10:35Z</time>
      </trkpt>
      <trkpt lat="43.03724" lon="-0.07965">
        <ele>485.6</ele>
        <time>2013-12-21T14:10:46Z</time>
      </trkpt>
      <trkpt lat="43.03743" lon="-0.07958">
        <ele>487.05</ele>
        <time>2013-12-21T14:10:53Z</time>
      </trkpt>
      <trkpt lat="43.03771" lon="-0.07949">
        <ele>489.45</ele>
        <time>2013-12-21T14:11:03Z</time>
      </trkpt>
      <trkpt lat="43.03794" lon="-0.07942">
        <ele>491.85</ele>
        <time>2013-12-21T14:11:12Z</time>
      </trkpt>
      <trkpt lat="43.03809" lon="-0.07912">
        <ele>490.41</ele>
        <time>2013-12-21T14:11:20Z</time>
      </trkpt>
      <trkpt lat="43.03828" lon="-0.07872">
        <ele>493.77</ele>
        <time>2013-12-21T14:11:30Z</time>
      </trkpt>
      <trkpt lat="43.03835" lon="-0.07857">
        <ele>495.22</ele>
        <time>2013-12-21T14:11:34Z</time>
      </trkpt>
      <trkpt lat="43.03841" lon="-0.07818">
        <ele>497.14</ele>
        <time>2013-12-21T14:11:45Z</time>
      </trkpt>
      <trkpt lat="43.03857" lon="-0.07808">
        <ele>500.98</ele>
        <time>2013-12-21T14:11:55Z</time>
      </trkpt>
      <trkpt lat="43.03872" lon="-0.07798">
        <ele>504.35</ele>
        <time>2013-12-21T14:12:06Z</time>
      </trkpt>
      <trkpt lat="43.03873" lon="-0.07797">
        <ele>504.83</ele>
        <time>2013-12-21T14:12:07Z</time>
      </trkpt>
      <trkpt lat="43.03882" lon="-0.0778">
        <ele>506.75</ele>
        <time>2013-12-21T14:12:15Z</time>
      </trkpt>
      <trkpt lat="43.03895" lon="-0.07751">
        <ele>510.12</ele>
        <time>2013-12-21T14:12:30Z</time>
      </trkpt>
      <trkpt lat="43.03898" lon="-0.07745">
        <ele>510.6</ele>
        <time>2013-12-21T14:12:33Z</time>
      </trkpt>
      <trkpt lat="43.03901" lon="-0.07728">
        <ele>509.16</ele>
        <time>2013-12-21T14:12:38Z</time>
      </trkpt>
      <trkpt lat="43.03892" lon="-0.07707">
        <ele>504.83</ele>
        <time>2013-12-21T14:12:42Z</time>
      </trkpt>
      <trkpt lat="43.03891" lon="-0.07687">
        <ele>501.46</ele>
        <time>2013-12-21T14:12:45Z</time>
      </trkpt>
      <trkpt lat="43.03892" lon="-0.07682">
        <ele>500.5</ele>
        <time>2013-12-21T14:12:46Z</time>
      </trkpt>
      <trkpt lat="43.03893" lon="-0.07671">
        <ele>499.06</ele>
        <time>2013-12-21T14:12:49Z</time>
      </trkpt>
      <trkpt lat="43.03889" lon="-0.07656">
        <ele>496.18</ele>
        <time>2013-12-21T14:12:53Z</time>
      </trkpt>
      <trkpt lat="43.03887" lon="-0.07636">
        <ele>493.77</ele>
        <time>2013-12-21T14:12:55Z</time>
      </trkpt>
      <trkpt lat="43.03886" lon="-0.07605">
        <ele>488.97</ele>
        <time>2013-12-21T14:12:59Z</time>
      </trkpt>
      <trkpt lat="43.03881" lon="-0.07549">
        <ele>484.64</ele>
        <time>2013-12-21T14:13:05Z</time>
      </trkpt>
      <trkpt lat="43.03882" lon="-0.07525">
        <ele>483.2</ele>
        <time>2013-12-21T14:13:08Z</time>
      </trkpt>
      <trkpt lat="43.03896" lon="-0.07487">
        <ele>483.2</ele>
        <time>2013-12-21T14:13:15Z</time>
      </trkpt>
      <trkpt lat="43.03897" lon="-0.0747">
        <ele>481.76</ele>
        <time>2013-12-21T14:13:21Z</time>
      </trkpt>
      <trkpt lat="43.039" lon="-0.07455">
        <ele>479.84</ele>
        <time>2013-12-21T14:13:23Z</time>
      </trkpt>
      <trkpt lat="43.03902" lon="-0.07441">
        <ele>478.87</ele>
        <time>2013-12-21T14:13:25Z</time>
      </trkpt>
      <trkpt lat="43.03904" lon="-0.07407">
        <ele>475.99</ele>
        <time>2013-12-21T14:13:29Z</time>
      </trkpt>
      <trkpt lat="43.03903" lon="-0.0737">
        <ele>471.18</ele>
        <time>2013-12-21T14:13:33Z</time>
      </trkpt>
      <trkpt lat="43.03896" lon="-0.07344">
        <ele>467.82</ele>
        <time>2013-12-21T14:13:37Z</time>
      </trkpt>
      <trkpt lat="43.03883" lon="-0.07326">
        <ele>464.93</ele>
        <time>2013-12-21T14:13:43Z</time>
      </trkpt>
      <trkpt lat="43.03878" lon="-0.0732">
        <ele>461.57</ele>
        <time>2013-12-21T14:13:46Z</time>
      </trkpt>
      <trkpt lat="43.03873" lon="-0.07312">
        <ele>458.69</ele>
        <time>2013-12-21T14:13:49Z</time>
      </trkpt>
      <trkpt lat="43.03871" lon="-0.07303">
        <ele>454.84</ele>
        <time>2013-12-21T14:13:53Z</time>
      </trkpt>
      <trkpt lat="43.03868" lon="-0.07303">
        <ele>454.36</ele>
        <time>2013-12-21T14:13:54Z</time>
      </trkpt>
      <trkpt lat="43.03861" lon="-0.07302">
        <ele>449.55</ele>
        <time>2013-12-21T14:13:57Z</time>
      </trkpt>
      <trkpt lat="43.03858" lon="-0.07303">
        <ele>449.55</ele>
        <time>2013-12-21T14:13:58Z</time>
      </trkpt>
      <trkpt lat="43.03854" lon="-0.07304">
        <ele>448.11</ele>
        <time>2013-12-21T14:14:00Z</time>
      </trkpt>
      <trkpt lat="43.0386" lon="-0.07296">
        <ele>448.11</ele>
        <time>2013-12-21T14:14:12Z</time>
      </trkpt>
      <trkpt lat="43.03861" lon="-0.07294">
        <ele>448.59</ele>
        <time>2013-12-21T14:14:46Z</time>
      </trkpt>
      <trkpt lat="43.03863" lon="-0.07299">
        <ele>448.11</ele>
        <time>2013-12-21T14:15:28Z</time>
      </trkpt>
      <trkpt lat="43.03863" lon="-0.07297">
        <ele>448.11</ele>
        <time>2013-12-21T14:15:41Z</time>
      </trkpt>
      <trkpt lat="43.03866" lon="-0.07292">
        <ele>448.11</ele>
        <time>2013-12-21T14:15:45Z</time>
      </trkpt>
      <trkpt lat="43.03873" lon="-0.0728">
        <ele>448.59</ele>
        <time>2013-12-21T14:15:50Z</time>
      </trkpt>
      <trkpt lat="43.03895" lon="-0.0725">
        <ele>449.07</ele>
        <time>2013-12-21T14:16:02Z</time>
      </trkpt>
      <trkpt lat="43.039" lon="-0.07227">
        <ele>448.59</ele>
        <time>2013-12-21T14:16:07Z</time>
      </trkpt>
      <trkpt lat="43.03905" lon="-0.07212">
        <ele>448.59</ele>
        <time>2013-12-21T14:16:10Z</time>
      </trkpt>
      <trkpt lat="43.03905" lon="-0.07183">
        <ele>445.71</ele>
        <time>2013-12-21T14:16:15Z</time>
      </trkpt>
      <trkpt lat="43.03906" lon="-0.07153">
        <ele>439.94</ele>
        <time>2013-12-21T14:16:20Z</time>
      </trkpt>
      <trkpt lat="43.03909" lon="-0.07139">
        <ele>436.58</ele>
        <time>2013-12-21T14:16:22Z</time>
      </trkpt>
      <trkpt lat="43.03913" lon="-0.07123">
        <ele>434.17</ele>
        <time>2013-12-21T14:16:24Z</time>
      </trkpt>
      <trkpt lat="43.03929" lon="-0.07091">
        <ele>429.37</ele>
        <time>2013-12-21T14:16:29Z</time>
      </trkpt>
      <trkpt lat="43.03936" lon="-0.07084">
        <ele>427.44</ele>
        <time>2013-12-21T14:16:32Z</time>
      </trkpt>
      <trkpt lat="43.03958" lon="-0.0706">
        <ele>424.08</ele>
        <time>2013-12-21T14:16:39Z</time>
      </trkpt>
      <trkpt lat="43.03965" lon="-0.07042">
        <ele>421.19</ele>
        <time>2013-12-21T14:16:43Z</time>
      </trkpt>
      <trkpt lat="43.03968" lon="-0.07035">
        <ele>420.23</ele>
        <time>2013-12-21T14:16:45Z</time>
      </trkpt>
      <trkpt lat="43.03974" lon="-0.07022">
        <ele>417.35</ele>
        <time>2013-12-21T14:16:50Z</time>
      </trkpt>
      <trkpt lat="43.03975" lon="-0.07019">
        <ele>415.91</ele>
        <time>2013-12-21T14:16:53Z</time>
      </trkpt>
      <trkpt lat="43.03976" lon="-0.07018">
        <ele>416.39</ele>
        <time>2013-12-21T14:16:54Z</time>
      </trkpt>
      <trkpt lat="43.03972" lon="-0.07012">
        <ele>413.98</ele>
        <time>2013-12-21T14:16:58Z</time>
      </trkpt>
      <trkpt lat="43.03972" lon="-0.07006">
        <ele>413.98</ele>
        <time>2013-12-21T14:17:05Z</time>
      </trkpt>
      <trkpt lat="43.03981" lon="-0.06987">
        <ele>412.54</ele>
        <time>2013-12-21T14:17:23Z</time>
      </trkpt>
      <trkpt lat="43.03998" lon="-0.06946">
        <ele>409.66</ele>
        <time>2013-12-21T14:17:30Z</time>
      </trkpt>
      <trkpt lat="43.04006" lon="-0.06918">
        <ele>406.29</ele>
        <time>2013-12-21T14:17:33Z</time>
      </trkpt>
      <trkpt lat="43.04042" lon="-0.06824">
        <ele>403.89</ele>
        <time>2013-12-21T14:17:44Z</time>
      </trkpt>
      <trkpt lat="43.04041" lon="-0.06816">
        <ele>403.89</ele>
        <time>2013-12-21T14:17:46Z</time>
      </trkpt>
      <trkpt lat="43.04036" lon="-0.06826">
        <ele>401.01</ele>
        <time>2013-12-21T14:17:51Z</time>
      </trkpt>
      <trkpt lat="43.04034" lon="-0.06828">
        <ele>399.57</ele>
        <time>2013-12-21T14:17:53Z</time>
      </trkpt>
      <trkpt lat="43.04029" lon="-0.06826">
        <ele>396.2</ele>
        <time>2013-12-21T14:17:57Z</time>
      </trkpt>
      <trkpt lat="43.04029" lon="-0.06825">
        <ele>396.2</ele>
        <time>2013-12-21T14:17:58Z</time>
      </trkpt>
      <trkpt lat="43.0403" lon="-0.06822">
        <ele>395.72</ele>
        <time>2013-12-21T14:18:02Z</time>
      </trkpt>
      <trkpt lat="43.04025" lon="-0.06792">
        <ele>395.72</ele>
        <time>2013-12-21T14:18:13Z</time>
      </trkpt>
      <trkpt lat="43.04023" lon="-0.06787">
        <ele>395.72</ele>
        <time>2013-12-21T14:18:15Z</time>
      </trkpt>
      <trkpt lat="43.04019" lon="-0.06786">
        <ele>395.72</ele>
        <time>2013-12-21T14:18:25Z</time>
      </trkpt>
      <trkpt lat="43.04017" lon="-0.06786">
        <ele>395.24</ele>
        <time>2013-12-21T14:18:27Z</time>
      </trkpt>
      <trkpt lat="43.03998" lon="-0.0676">
        <ele>394.76</ele>
        <time>2013-12-21T14:18:39Z</time>
      </trkpt>
      <trkpt lat="43.03993" lon="-0.06757">
        <ele>395.24</ele>
        <time>2013-12-21T14:18:52Z</time>
      </trkpt>
      <trkpt lat="43.03992" lon="-0.06757">
        <ele>395.72</ele>
        <time>2013-12-21T14:19:21Z</time>
      </trkpt>
      <trkpt lat="43.03984" lon="-0.06754">
        <ele>395.24</ele>
        <time>2013-12-21T14:19:32Z</time>
      </trkpt>
      <trkpt lat="43.03968" lon="-0.06737">
        <ele>395.24</ele>
        <time>2013-12-21T14:19:40Z</time>
      </trkpt>
      <trkpt lat="43.03954" lon="-0.06739">
        <ele>395.72</ele>
        <time>2013-12-21T14:19:46Z</time>
      </trkpt>
      <trkpt lat="43.03907" lon="-0.06778">
        <ele>395.72</ele>
        <time>2013-12-21T14:20:01Z</time>
      </trkpt>
      <trkpt lat="43.03844" lon="-0.06828">
        <ele>395.72</ele>
        <time>2013-12-21T14:20:17Z</time>
      </trkpt>
      <trkpt lat="43.03755" lon="-0.06892">
        <ele>397.64</ele>
        <time>2013-12-21T14:20:38Z</time>
      </trkpt>
      <trkpt lat="43.03722" lon="-0.06932">
        <ele>400.53</ele>
        <time>2013-12-21T14:20:50Z</time>
      </trkpt>
      <trkpt lat="43.03691" lon="-0.06962">
        <ele>397.64</ele>
        <time>2013-12-21T14:20:58Z</time>
      </trkpt>
      <trkpt lat="43.0368" lon="-0.06969">
        <ele>397.16</ele>
        <time>2013-12-21T14:21:00Z</time>
      </trkpt>
      <trkpt lat="43.03636" lon="-0.07006">
        <ele>397.64</ele>
        <time>2013-12-21T14:21:09Z</time>
      </trkpt>
      <trkpt lat="43.0362" lon="-0.07022">
        <ele>397.64</ele>
        <time>2013-12-21T14:21:13Z</time>
      </trkpt>
      <trkpt lat="43.03604" lon="-0.07035">
        <ele>397.64</ele>
        <time>2013-12-21T14:21:17Z</time>
      </trkpt>
      <trkpt lat="43.0355" lon="-0.0708">
        <ele>398.6</ele>
        <time>2013-12-21T14:21:31Z</time>
      </trkpt>
      <trkpt lat="43.03508" lon="-0.07113">
        <ele>399.08</ele>
        <time>2013-12-21T14:21:41Z</time>
      </trkpt>
      <trkpt lat="43.03479" lon="-0.07136">
        <ele>399.08</ele>
        <time>2013-12-21T14:21:48Z</time>
      </trkpt>
      <trkpt lat="43.03467" lon="-0.07147">
        <ele>399.57</ele>
        <time>2013-12-21T14:21:51Z</time>
      </trkpt>
      <trkpt lat="43.034" lon="-0.07202">
        <ele>399.57</ele>
        <time>2013-12-21T14:22:07Z</time>
      </trkpt>
      <trkpt lat="43.03344" lon="-0.07249">
        <ele>399.57</ele>
        <time>2013-12-21T14:22:19Z</time>
      </trkpt>
      <trkpt lat="43.03329" lon="-0.07261">
        <ele>399.57</ele>
        <time>2013-12-21T14:22:22Z</time>
      </trkpt>
      <trkpt lat="43.03279" lon="-0.07303">
        <ele>399.57</ele>
        <time>2013-12-21T14:22:32Z</time>
      </trkpt>
      <trkpt lat="43.0321" lon="-0.07361">
        <ele>401.49</ele>
        <time>2013-12-21T14:22:48Z</time>
      </trkpt>
      <trkpt lat="43.03196" lon="-0.07376">
        <ele>402.45</ele>
        <time>2013-12-21T14:22:52Z</time>
      </trkpt>
      <trkpt lat="43.03158" lon="-0.0744">
        <ele>404.37</ele>
        <time>2013-12-21T14:23:05Z</time>
      </trkpt>
      <trkpt lat="43.03129" lon="-0.07496">
        <ele>404.37</ele>
        <time>2013-12-21T14:23:16Z</time>
      </trkpt>
      <trkpt lat="43.03107" lon="-0.0754">
        <ele>404.37</ele>
        <time>2013-12-21T14:23:27Z</time>
      </trkpt>
      <trkpt lat="43.03063" lon="-0.07626">
        <ele>404.37</ele>
        <time>2013-12-21T14:23:44Z</time>
      </trkpt>
      <trkpt lat="43.03027" lon="-0.07696">
        <ele>405.33</ele>
        <time>2013-12-21T14:23:57Z</time>
      </trkpt>
      <trkpt lat="43.03007" lon="-0.07735">
        <ele>406.77</ele>
        <time>2013-12-21T14:24:07Z</time>
      </trkpt>
      <trkpt lat="43.02999" lon="-0.07729">
        <ele>406.77</ele>
        <time>2013-12-21T14:24:18Z</time>
      </trkpt>
      <trkpt lat="43.02998" lon="-0.07729">
        <ele>406.77</ele>
        <time>2013-12-21T14:24:30Z</time>
      </trkpt>
      <trkpt lat="43.02986" lon="-0.07723">
        <ele>406.77</ele>
        <time>2013-12-21T14:24:36Z</time>
      </trkpt>
      <trkpt lat="43.02958" lon="-0.07688">
        <ele>407.74</ele>
        <time>2013-12-21T14:24:49Z</time>
      </trkpt>
      <trkpt lat="43.02952" lon="-0.07656">
        <ele>407.74</ele>
        <time>2013-12-21T14:24:58Z</time>
      </trkpt>
      <trkpt lat="43.02947" lon="-0.07667">
        <ele>409.66</ele>
        <time>2013-12-21T14:25:06Z</time>
      </trkpt>
      <trkpt lat="43.02946" lon="-0.0767">
        <ele>410.14</ele>
        <time>2013-12-21T14:25:07Z</time>
      </trkpt>
      <trkpt lat="43.02944" lon="-0.07674">
        <ele>411.1</ele>
        <time>2013-12-21T14:25:10Z</time>
      </trkpt>
      <trkpt lat="43.02944" lon="-0.0769">
        <ele>413.02</ele>
        <time>2013-12-21T14:25:17Z</time>
      </trkpt>
      <trkpt lat="43.02944" lon="-0.07722">
        <ele>416.39</ele>
        <time>2013-12-21T14:25:32Z</time>
      </trkpt>
      <trkpt lat="43.02945" lon="-0.07727">
        <ele>416.39</ele>
        <time>2013-12-21T14:25:36Z</time>
      </trkpt>
      <trkpt lat="43.02947" lon="-0.07727">
        <ele>416.87</ele>
        <time>2013-12-21T14:25:41Z</time>
      </trkpt>
      <trkpt lat="43.02946" lon="-0.07725">
        <ele>415.91</ele>
        <time>2013-12-21T14:25:43Z</time>
      </trkpt>
      <trkpt lat="43.02931" lon="-0.07731">
        <ele>419.27</ele>
        <time>2013-12-21T14:25:55Z</time>
      </trkpt>
      <trkpt lat="43.02928" lon="-0.07733">
        <ele>420.71</ele>
        <time>2013-12-21T14:25:58Z</time>
      </trkpt>
      <trkpt lat="43.02919" lon="-0.07734">
        <ele>424.08</ele>
        <time>2013-12-21T14:26:08Z</time>
      </trkpt>
      <trkpt lat="43.02918" lon="-0.07734">
        <ele>425.04</ele>
        <time>2013-12-21T14:26:09Z</time>
      </trkpt>
      <trkpt lat="43.02914" lon="-0.07734">
        <ele>426.48</ele>
        <time>2013-12-21T14:26:19Z</time>
      </trkpt>
      <trkpt lat="43.02909" lon="-0.07733">
        <ele>428.89</ele>
        <time>2013-12-21T14:26:34Z</time>
      </trkpt>
      <trkpt lat="43.02901" lon="-0.07737">
        <ele>432.25</ele>
        <time>2013-12-21T14:26:48Z</time>
      </trkpt>
      <trkpt lat="43.0289" lon="-0.07742">
        <ele>434.17</ele>
        <time>2013-12-21T14:27:01Z</time>
      </trkpt>
      <trkpt lat="43.02884" lon="-0.07738">
        <ele>435.13</ele>
        <time>2013-12-21T14:27:10Z</time>
      </trkpt>
      <trkpt lat="43.0288" lon="-0.07735">
        <ele>435.61</ele>
        <time>2013-12-21T14:27:15Z</time>
      </trkpt>
      <trkpt lat="43.0287" lon="-0.07721">
        <ele>437.54</ele>
        <time>2013-12-21T14:27:27Z</time>
      </trkpt>
      <trkpt lat="43.02871" lon="-0.07714">
        <ele>439.46</ele>
        <time>2013-12-21T14:27:38Z</time>
      </trkpt>
      <trkpt lat="43.02869" lon="-0.07715">
        <ele>438.5</ele>
        <time>2013-12-21T14:27:51Z</time>
      </trkpt>
      <trkpt lat="43.02868" lon="-0.07711">
        <ele>438.5</ele>
        <time>2013-12-21T14:28:03Z</time>
      </trkpt>
      <trkpt lat="43.02867" lon="-0.07704">
        <ele>439.94</ele>
        <time>2013-12-21T14:28:12Z</time>
      </trkpt>
      <trkpt lat="43.02874" lon="-0.07691">
        <ele>443.31</ele>
        <time>2013-12-21T14:28:23Z</time>
      </trkpt>
      <trkpt lat="43.02879" lon="-0.07689">
        <ele>444.75</ele>
        <time>2013-12-21T14:28:27Z</time>
      </trkpt>
      <trkpt lat="43.02881" lon="-0.07685">
        <ele>446.19</ele>
        <time>2013-12-21T14:28:31Z</time>
      </trkpt>
      <trkpt lat="43.02881" lon="-0.07677">
        <ele>447.15</ele>
        <time>2013-12-21T14:28:35Z</time>
      </trkpt>
      <trkpt lat="43.02877" lon="-0.07675">
        <ele>445.71</ele>
        <time>2013-12-21T14:28:41Z</time>
      </trkpt>
      <trkpt lat="43.02876" lon="-0.07673">
        <ele>445.71</ele>
        <time>2013-12-21T14:28:43Z</time>
      </trkpt>
      <trkpt lat="43.02879" lon="-0.0767">
        <ele>445.71</ele>
        <time>2013-12-21T14:28:47Z</time>
      </trkpt>
      <trkpt lat="43.02882" lon="-0.07662">
        <ele>445.23</ele>
        <time>2013-12-21T14:28:51Z</time>
      </trkpt>
      <trkpt lat="43.02885" lon="-0.07656">
        <ele>444.27</ele>
        <time>2013-12-21T14:28:53Z</time>
      </trkpt>
      <trkpt lat="43.02879" lon="-0.07652">
        <ele>439.46</ele>
        <time>2013-12-21T14:28:59Z</time>
      </trkpt>
      <trkpt lat="43.02878" lon="-0.0764">
        <ele>435.61</ele>
        <time>2013-12-21T14:29:04Z</time>
      </trkpt>
      <trkpt lat="43.0288" lon="-0.07638">
        <ele>436.1</ele>
        <time>2013-12-21T14:29:05Z</time>
      </trkpt>
      <trkpt lat="43.02888" lon="-0.07635">
        <ele>434.17</ele>
        <time>2013-12-21T14:29:08Z</time>
      </trkpt>
      <trkpt lat="43.02899" lon="-0.07636">
        <ele>429.85</ele>
        <time>2013-12-21T14:29:14Z</time>
      </trkpt>
      <trkpt lat="43.02902" lon="-0.07634">
        <ele>428.89</ele>
        <time>2013-12-21T14:29:16Z</time>
      </trkpt>
      <trkpt lat="43.02902" lon="-0.07632">
        <ele>427.44</ele>
        <time>2013-12-21T14:29:17Z</time>
      </trkpt>
      <trkpt lat="43.02902" lon="-0.07625">
        <ele>426</ele>
        <time>2013-12-21T14:29:20Z</time>
      </trkpt>
      <trkpt lat="43.02903" lon="-0.07624">
        <ele>425.52</ele>
        <time>2013-12-21T14:29:21Z</time>
      </trkpt>
      <trkpt lat="43.02908" lon="-0.07622">
        <ele>423.12</ele>
        <time>2013-12-21T14:29:25Z</time>
      </trkpt>
      <trkpt lat="43.02908" lon="-0.07618">
        <ele>421.68</ele>
        <time>2013-12-21T14:29:27Z</time>
      </trkpt>
      <trkpt lat="43.02909" lon="-0.07616">
        <ele>420.23</ele>
        <time>2013-12-21T14:29:28Z</time>
      </trkpt>
      <trkpt lat="43.02903" lon="-0.07602">
        <ele>416.39</ele>
        <time>2013-12-21T14:29:32Z</time>
      </trkpt>
      <trkpt lat="43.029" lon="-0.07597">
        <ele>413.98</ele>
        <time>2013-12-21T14:29:33Z</time>
      </trkpt>
      <trkpt lat="43.02895" lon="-0.07586">
        <ele>413.02</ele>
        <time>2013-12-21T14:29:36Z</time>
      </trkpt>
      <trkpt lat="43.02915" lon="-0.07587">
        <ele>411.58</ele>
        <time>2013-12-21T14:29:39Z</time>
      </trkpt>
      <trkpt lat="43.0292" lon="-0.07579">
        <ele>409.66</ele>
        <time>2013-12-21T14:29:41Z</time>
      </trkpt>
      <trkpt lat="43.02923" lon="-0.07567">
        <ele>408.22</ele>
        <time>2013-12-21T14:29:43Z</time>
      </trkpt>
      <trkpt lat="43.02928" lon="-0.07563">
        <ele>406.77</ele>
        <time>2013-12-21T14:29:45Z</time>
      </trkpt>
      <trkpt lat="43.02937" lon="-0.07576">
        <ele>407.26</ele>
        <time>2013-12-21T14:29:53Z</time>
      </trkpt>
      <trkpt lat="43.02939" lon="-0.07577">
        <ele>407.26</ele>
        <time>2013-12-21T14:29:55Z</time>
      </trkpt>
      <trkpt lat="43.02941" lon="-0.07584">
        <ele>407.26</ele>
        <time>2013-12-21T14:30:00Z</time>
      </trkpt>
      <trkpt lat="43.02944" lon="-0.07593">
        <ele>407.26</ele>
        <time>2013-12-21T14:30:07Z</time>
      </trkpt>
      <trkpt lat="43.02947" lon="-0.07601">
        <ele>407.74</ele>
        <time>2013-12-21T14:30:12Z</time>
      </trkpt>
      <trkpt lat="43.02951" lon="-0.0762">
        <ele>406.77</ele>
        <time>2013-12-21T14:30:22Z</time>
      </trkpt>
      <trkpt lat="43.02951" lon="-0.07656">
        <ele>407.74</ele>
        <time>2013-12-21T14:30:34Z</time>
      </trkpt>
      <trkpt lat="43.02965" lon="-0.07699">
        <ele>407.26</ele>
        <time>2013-12-21T14:30:47Z</time>
      </trkpt>
      <trkpt lat="43.02999" lon="-0.07731">
        <ele>407.26</ele>
        <time>2013-12-21T14:31:02Z</time>
      </trkpt>
      <trkpt lat="43.02993" lon="-0.07763">
        <ele>407.74</ele>
        <time>2013-12-21T14:31:13Z</time>
      </trkpt>
      <trkpt lat="43.0297" lon="-0.07818">
        <ele>409.18</ele>
        <time>2013-12-21T14:31:28Z</time>
      </trkpt>
      <trkpt lat="43.0297" lon="-0.07877">
        <ele>410.14</ele>
        <time>2013-12-21T14:31:42Z</time>
      </trkpt>
      <trkpt lat="43.02989" lon="-0.07935">
        <ele>410.62</ele>
        <time>2013-12-21T14:31:57Z</time>
      </trkpt>
      <trkpt lat="43.03018" lon="-0.07979">
        <ele>414.47</ele>
        <time>2013-12-21T14:32:13Z</time>
      </trkpt>
      <trkpt lat="43.0304" lon="-0.08011">
        <ele>415.91</ele>
        <time>2013-12-21T14:32:27Z</time>
      </trkpt>
      <trkpt lat="43.0306" lon="-0.08039">
        <ele>420.23</ele>
        <time>2013-12-21T14:32:40Z</time>
      </trkpt>
      <trkpt lat="43.03062" lon="-0.08041">
        <ele>418.79</ele>
        <time>2013-12-21T14:32:41Z</time>
      </trkpt>
      <trkpt lat="43.03072" lon="-0.08056">
        <ele>419.27</ele>
        <time>2013-12-21T14:32:48Z</time>
      </trkpt>
      <trkpt lat="43.03092" lon="-0.08071">
        <ele>422.64</ele>
        <time>2013-12-21T14:33:01Z</time>
      </trkpt>
      <trkpt lat="43.03108" lon="-0.08084">
        <ele>426</ele>
        <time>2013-12-21T14:33:13Z</time>
      </trkpt>
      <trkpt lat="43.03121" lon="-0.08091">
        <ele>428.4</ele>
        <time>2013-12-21T14:33:24Z</time>
      </trkpt>
      <trkpt lat="43.03131" lon="-0.08096">
        <ele>430.81</ele>
        <time>2013-12-21T14:33:31Z</time>
      </trkpt>
      <trkpt lat="43.03146" lon="-0.08111">
        <ele>433.21</ele>
        <time>2013-12-21T14:33:43Z</time>
      </trkpt>
      <trkpt lat="43.03156" lon="-0.08123">
        <ele>435.61</ele>
        <time>2013-12-21T14:33:54Z</time>
      </trkpt>
      <trkpt lat="43.0316" lon="-0.08124">
        <ele>436.1</ele>
        <time>2013-12-21T14:33:57Z</time>
      </trkpt>
      <trkpt lat="43.03163" lon="-0.08104">
        <ele>439.94</ele>
        <time>2013-12-21T14:34:11Z</time>
      </trkpt>
      <trkpt lat="43.03158" lon="-0.08086">
        <ele>442.82</ele>
        <time>2013-12-21T14:34:22Z</time>
      </trkpt>
      <trkpt lat="43.03159" lon="-0.08079">
        <ele>444.27</ele>
        <time>2013-12-21T14:34:26Z</time>
      </trkpt>
      <trkpt lat="43.03163" lon="-0.08075">
        <ele>446.19</ele>
        <time>2013-12-21T14:34:32Z</time>
      </trkpt>
      <trkpt lat="43.03175" lon="-0.08081">
        <ele>450.03</ele>
        <time>2013-12-21T14:34:45Z</time>
      </trkpt>
      <trkpt lat="43.03181" lon="-0.08082">
        <ele>451</ele>
        <time>2013-12-21T14:34:50Z</time>
      </trkpt>
      <trkpt lat="43.03194" lon="-0.08082">
        <ele>453.4</ele>
        <time>2013-12-21T14:35:01Z</time>
      </trkpt>
      <trkpt lat="43.032" lon="-0.08083">
        <ele>453.88</ele>
        <time>2013-12-21T14:35:05Z</time>
      </trkpt>
      <trkpt lat="43.03204" lon="-0.08082">
        <ele>454.84</ele>
        <time>2013-12-21T14:35:11Z</time>
      </trkpt>
      <trkpt lat="43.03202" lon="-0.08081">
        <ele>455.32</ele>
        <time>2013-12-21T14:35:13Z</time>
      </trkpt>
      <trkpt lat="43.032" lon="-0.08071">
        <ele>459.17</ele>
        <time>2013-12-21T14:35:24Z</time>
      </trkpt>
      <trkpt lat="43.03199" lon="-0.0807">
        <ele>459.17</ele>
        <time>2013-12-21T14:35:25Z</time>
      </trkpt>
      <trkpt lat="43.03195" lon="-0.08061">
        <ele>461.09</ele>
        <time>2013-12-21T14:35:34Z</time>
      </trkpt>
      <trkpt lat="43.03194" lon="-0.08058">
        <ele>462.05</ele>
        <time>2013-12-21T14:35:36Z</time>
      </trkpt>
      <trkpt lat="43.03183" lon="-0.08044">
        <ele>465.42</ele>
        <time>2013-12-21T14:35:49Z</time>
      </trkpt>
      <trkpt lat="43.03179" lon="-0.08031">
        <ele>468.3</ele>
        <time>2013-12-21T14:35:59Z</time>
      </trkpt>
      <trkpt lat="43.03175" lon="-0.0801">
        <ele>471.66</ele>
        <time>2013-12-21T14:36:11Z</time>
      </trkpt>
      <trkpt lat="43.03173" lon="-0.07993">
        <ele>475.03</ele>
        <time>2013-12-21T14:36:22Z</time>
      </trkpt>
      <trkpt lat="43.03173" lon="-0.07991">
        <ele>475.03</ele>
        <time>2013-12-21T14:36:23Z</time>
      </trkpt>
      <trkpt lat="43.0317" lon="-0.07972">
        <ele>477.43</ele>
        <time>2013-12-21T14:36:34Z</time>
      </trkpt>
      <trkpt lat="43.03168" lon="-0.07965">
        <ele>478.39</ele>
        <time>2013-12-21T14:36:38Z</time>
      </trkpt>
      <trkpt lat="43.0317" lon="-0.07963">
        <ele>478.87</ele>
        <time>2013-12-21T14:36:40Z</time>
      </trkpt>
      <trkpt lat="43.03178" lon="-0.07974">
        <ele>480.8</ele>
        <time>2013-12-21T14:36:51Z</time>
      </trkpt>
      <trkpt lat="43.03179" lon="-0.07972">
        <ele>481.76</ele>
        <time>2013-12-21T14:36:56Z</time>
      </trkpt>
      <trkpt lat="43.03176" lon="-0.07962">
        <ele>484.16</ele>
        <time>2013-12-21T14:37:06Z</time>
      </trkpt>
      <trkpt lat="43.03185" lon="-0.07967">
        <ele>487.05</ele>
        <time>2013-12-21T14:37:18Z</time>
      </trkpt>
      <trkpt lat="43.03192" lon="-0.07969">
        <ele>489.45</ele>
        <time>2013-12-21T14:37:23Z</time>
      </trkpt>
      <trkpt lat="43.03196" lon="-0.07972">
        <ele>490.89</ele>
        <time>2013-12-21T14:37:28Z</time>
      </trkpt>
      <trkpt lat="43.03206" lon="-0.07971">
        <ele>493.29</ele>
        <time>2013-12-21T14:37:37Z</time>
      </trkpt>
      <trkpt lat="43.0322" lon="-0.0797">
        <ele>496.66</ele>
        <time>2013-12-21T14:37:48Z</time>
      </trkpt>
      <trkpt lat="43.03228" lon="-0.07967">
        <ele>498.58</ele>
        <time>2013-12-21T14:37:55Z</time>
      </trkpt>
      <trkpt lat="43.03234" lon="-0.07966">
        <ele>500.02</ele>
        <time>2013-12-21T14:38:00Z</time>
      </trkpt>
      <trkpt lat="43.0324" lon="-0.07964">
        <ele>500.98</ele>
        <time>2013-12-21T14:38:05Z</time>
      </trkpt>
      <trkpt lat="43.03243" lon="-0.07962">
        <ele>501.95</ele>
        <time>2013-12-21T14:38:09Z</time>
      </trkpt>
      <trkpt lat="43.03256" lon="-0.07954">
        <ele>505.31</ele>
        <time>2013-12-21T14:38:21Z</time>
      </trkpt>
      <trkpt lat="43.03265" lon="-0.07947">
        <ele>507.23</ele>
        <time>2013-12-21T14:38:31Z</time>
      </trkpt>
      <trkpt lat="43.03269" lon="-0.07945">
        <ele>507.23</ele>
        <time>2013-12-21T14:38:34Z</time>
      </trkpt>
      <trkpt lat="43.03272" lon="-0.07942">
        <ele>507.71</ele>
        <time>2013-12-21T14:38:37Z</time>
      </trkpt>
      <trkpt lat="43.03273" lon="-0.0794">
        <ele>508.19</ele>
        <time>2013-12-21T14:38:39Z</time>
      </trkpt>
      <trkpt lat="43.03278" lon="-0.07937">
        <ele>507.71</ele>
        <time>2013-12-21T14:38:52Z</time>
      </trkpt>
      <trkpt lat="43.03282" lon="-0.07935">
        <ele>507.71</ele>
        <time>2013-12-21T14:39:17Z</time>
      </trkpt>
      <trkpt lat="43.03283" lon="-0.07935">
        <ele>507.71</ele>
        <time>2013-12-21T14:39:43Z</time>
      </trkpt>
      <trkpt lat="43.03285" lon="-0.07934">
        <ele>508.19</ele>
        <time>2013-12-21T14:40:11Z</time>
      </trkpt>
      <trkpt lat="43.03281" lon="-0.07931">
        <ele>507.71</ele>
        <time>2013-12-21T14:40:37Z</time>
      </trkpt>
      <trkpt lat="43.0328" lon="-0.07932">
        <ele>508.19</ele>
        <time>2013-12-21T14:41:05Z</time>
      </trkpt>
      <trkpt lat="43.03282" lon="-0.07934">
        <ele>507.71</ele>
        <time>2013-12-21T14:41:30Z</time>
      </trkpt>
      <trkpt lat="43.03284" lon="-0.07924">
        <ele>507.23</ele>
        <time>2013-12-21T14:41:36Z</time>
      </trkpt>
      <trkpt lat="43.03284" lon="-0.07904">
        <ele>508.67</ele>
        <time>2013-12-21T14:41:45Z</time>
      </trkpt>
      <trkpt lat="43.03283" lon="-0.0789">
        <ele>510.6</ele>
        <time>2013-12-21T14:41:52Z</time>
      </trkpt>
      <trkpt lat="43.03282" lon="-0.07878">
        <ele>511.56</ele>
        <time>2013-12-21T14:41:57Z</time>
      </trkpt>
      <trkpt lat="43.03284" lon="-0.07872">
        <ele>512.04</ele>
        <time>2013-12-21T14:42:00Z</time>
      </trkpt>
      <trkpt lat="43.03285" lon="-0.07868">
        <ele>512.04</ele>
        <time>2013-12-21T14:42:02Z</time>
      </trkpt>
      <trkpt lat="43.03286" lon="-0.07863">
        <ele>512.04</ele>
        <time>2013-12-21T14:42:04Z</time>
      </trkpt>
      <trkpt lat="43.03287" lon="-0.07859">
        <ele>511.56</ele>
        <time>2013-12-21T14:42:06Z</time>
      </trkpt>
      <trkpt lat="43.03292" lon="-0.07852">
        <ele>511.56</ele>
        <time>2013-12-21T14:42:09Z</time>
      </trkpt>
      <trkpt lat="43.03295" lon="-0.07847">
        <ele>511.08</ele>
        <time>2013-12-21T14:42:12Z</time>
      </trkpt>
      <trkpt lat="43.03306" lon="-0.0781">
        <ele>510.6</ele>
        <time>2013-12-21T14:42:21Z</time>
      </trkpt>
      <trkpt lat="43.03317" lon="-0.07775">
        <ele>511.08</ele>
        <time>2013-12-21T14:42:30Z</time>
      </trkpt>
      <trkpt lat="43.03318" lon="-0.07769">
        <ele>511.56</ele>
        <time>2013-12-21T14:42:32Z</time>
      </trkpt>
      <trkpt lat="43.03321" lon="-0.07762">
        <ele>513</ele>
        <time>2013-12-21T14:42:35Z</time>
      </trkpt>
      <trkpt lat="43.03325" lon="-0.0776">
        <ele>514.92</ele>
        <time>2013-12-21T14:42:39Z</time>
      </trkpt>
      <trkpt lat="43.03334" lon="-0.07748">
        <ele>518.29</ele>
        <time>2013-12-21T14:42:48Z</time>
      </trkpt>
      <trkpt lat="43.03336" lon="-0.07746">
        <ele>518.77</ele>
        <time>2013-12-21T14:42:50Z</time>
      </trkpt>
      <trkpt lat="43.03345" lon="-0.07744">
        <ele>520.21</ele>
        <time>2013-12-21T14:43:01Z</time>
      </trkpt>
      <trkpt lat="43.03351" lon="-0.07742">
        <ele>520.69</ele>
        <time>2013-12-21T14:43:14Z</time>
      </trkpt>
      <trkpt lat="43.0335" lon="-0.07741">
        <ele>520.69</ele>
        <time>2013-12-21T14:43:37Z</time>
      </trkpt>
      <trkpt lat="43.03351" lon="-0.07741">
        <ele>521.17</ele>
        <time>2013-12-21T14:44:01Z</time>
      </trkpt>
      <trkpt lat="43.03358" lon="-0.07736">
        <ele>523.09</ele>
        <time>2013-12-21T14:44:15Z</time>
      </trkpt>
      <trkpt lat="43.03359" lon="-0.07735">
        <ele>523.58</ele>
        <time>2013-12-21T14:44:22Z</time>
      </trkpt>
      <trkpt lat="43.03352" lon="-0.07739">
        <ele>521.17</ele>
        <time>2013-12-21T14:44:33Z</time>
      </trkpt>
      <trkpt lat="43.03352" lon="-0.07739">
        <ele>521.17</ele>
        <time>2013-12-21T14:44:47Z</time>
      </trkpt>
      <trkpt lat="43.03353" lon="-0.07738">
        <ele>521.65</ele>
        <time>2013-12-21T14:44:50Z</time>
      </trkpt>
      <trkpt lat="43.03359" lon="-0.07735">
        <ele>523.09</ele>
        <time>2013-12-21T14:44:54Z</time>
      </trkpt>
      <trkpt lat="43.03359" lon="-0.07734">
        <ele>522.13</ele>
        <time>2013-12-21T14:45:04Z</time>
      </trkpt>
      <trkpt lat="43.03358" lon="-0.07735">
        <ele>522.13</ele>
        <time>2013-12-21T14:45:32Z</time>
      </trkpt>
      <trkpt lat="43.03358" lon="-0.07735">
        <ele>522.13</ele>
        <time>2013-12-21T14:46:05Z</time>
      </trkpt>
      <trkpt lat="43.03355" lon="-0.07737">
        <ele>520.69</ele>
        <time>2013-12-21T14:46:17Z</time>
      </trkpt>
      <trkpt lat="43.03352" lon="-0.07738">
        <ele>520.69</ele>
        <time>2013-12-21T14:46:34Z</time>
      </trkpt>
      <trkpt lat="43.03351" lon="-0.0774">
        <ele>521.17</ele>
        <time>2013-12-21T14:46:55Z</time>
      </trkpt>
      <trkpt lat="43.03351" lon="-0.0774">
        <ele>517.81</ele>
        <time>2013-12-21T14:47:04Z</time>
      </trkpt>
      <trkpt lat="43.03351" lon="-0.07741">
        <ele>521.65</ele>
        <time>2013-12-21T14:47:05Z</time>
      </trkpt>
      <trkpt lat="43.03351" lon="-0.07741">
        <ele>519.73</ele>
        <time>2013-12-21T14:47:08Z</time>
      </trkpt>
      <trkpt lat="43.03351" lon="-0.07741">
        <ele>525.5</ele>
        <time>2013-12-21T14:47:09Z</time>
      </trkpt>
      <trkpt lat="43.03351" lon="-0.07741">
        <ele>522.61</ele>
        <time>2013-12-21T14:47:10Z</time>
      </trkpt>
      <trkpt lat="43.03351" lon="-0.07741">
        <ele>521.17</ele>
        <time>2013-12-21T14:47:12Z</time>
      </trkpt>
      <trkpt lat="43.03351" lon="-0.07741">
        <ele>520.69</ele>
        <time>2013-12-21T14:47:28Z</time>
      </trkpt>
      <trkpt lat="43.0335" lon="-0.07744">
        <ele>520.69</ele>
        <time>2013-12-21T14:47:58Z</time>
      </trkpt>
      <trkpt lat="43.03351" lon="-0.0774">
        <ele>521.65</ele>
        <time>2013-12-21T14:48:15Z</time>
      </trkpt>
      <trkpt lat="43.0335" lon="-0.07739">
        <ele>521.65</ele>
        <time>2013-12-21T14:48:27Z</time>
      </trkpt>
      <trkpt lat="43.03358" lon="-0.07735">
        <ele>524.06</ele>
        <time>2013-12-21T14:48:37Z</time>
      </trkpt>
      <trkpt lat="43.03363" lon="-0.07725">
        <ele>526.46</ele>
        <time>2013-12-21T14:48:51Z</time>
      </trkpt>
      <trkpt lat="43.03367" lon="-0.07717">
        <ele>527.42</ele>
        <time>2013-12-21T14:49:03Z</time>
      </trkpt>
      <trkpt lat="43.03371" lon="-0.07705">
        <ele>527.42</ele>
        <time>2013-12-21T14:49:13Z</time>
      </trkpt>
      <trkpt lat="43.03384" lon="-0.07691">
        <ele>526.94</ele>
        <time>2013-12-21T14:49:19Z</time>
      </trkpt>
      <trkpt lat="43.03388" lon="-0.0769">
        <ele>527.42</ele>
        <time>2013-12-21T14:49:21Z</time>
      </trkpt>
      <trkpt lat="43.03402" lon="-0.07697">
        <ele>525.02</ele>
        <time>2013-12-21T14:49:27Z</time>
      </trkpt>
      <trkpt lat="43.03408" lon="-0.07702">
        <ele>524.54</ele>
        <time>2013-12-21T14:49:29Z</time>
      </trkpt>
      <trkpt lat="43.03411" lon="-0.07707">
        <ele>524.54</ele>
        <time>2013-12-21T14:49:31Z</time>
      </trkpt>
      <trkpt lat="43.0343" lon="-0.07701">
        <ele>526.46</ele>
        <time>2013-12-21T14:49:42Z</time>
      </trkpt>
      <trkpt lat="43.03448" lon="-0.0769">
        <ele>529.34</ele>
        <time>2013-12-21T14:49:51Z</time>
      </trkpt>
      <trkpt lat="43.0345" lon="-0.07688">
        <ele>530.3</ele>
        <time>2013-12-21T14:49:53Z</time>
      </trkpt>
      <trkpt lat="43.03456" lon="-0.07682">
        <ele>529.82</ele>
        <time>2013-12-21T14:49:59Z</time>
      </trkpt>
      <trkpt lat="43.03457" lon="-0.07679">
        <ele>529.34</ele>
        <time>2013-12-21T14:50:10Z</time>
      </trkpt>
      <trkpt lat="43.03457" lon="-0.07679">
        <ele>529.34</ele>
        <time>2013-12-21T14:50:14Z</time>
      </trkpt>
      <trkpt lat="43.03463" lon="-0.07661">
        <ele>525.98</ele>
        <time>2013-12-21T14:50:21Z</time>
      </trkpt>
      <trkpt lat="43.0347" lon="-0.07657">
        <ele>524.06</ele>
        <time>2013-12-21T14:50:24Z</time>
      </trkpt>
      <trkpt lat="43.0348" lon="-0.07651">
        <ele>522.13</ele>
        <time>2013-12-21T14:50:28Z</time>
      </trkpt>
      <trkpt lat="43.0349" lon="-0.07644">
        <ele>516.85</ele>
        <time>2013-12-21T14:50:34Z</time>
      </trkpt>
      <trkpt lat="43.03494" lon="-0.07632">
        <ele>513.48</ele>
        <time>2013-12-21T14:50:38Z</time>
      </trkpt>
      <trkpt lat="43.03495" lon="-0.07631">
        <ele>512.52</ele>
        <time>2013-12-21T14:50:40Z</time>
      </trkpt>
      <trkpt lat="43.03503" lon="-0.07627">
        <ele>508.67</ele>
        <time>2013-12-21T14:50:44Z</time>
      </trkpt>
      <trkpt lat="43.03506" lon="-0.07628">
        <ele>506.75</ele>
        <time>2013-12-21T14:50:46Z</time>
      </trkpt>
      <trkpt lat="43.03514" lon="-0.0762">
        <ele>503.39</ele>
        <time>2013-12-21T14:50:50Z</time>
      </trkpt>
      <trkpt lat="43.03515" lon="-0.07616">
        <ele>502.91</ele>
        <time>2013-12-21T14:50:51Z</time>
      </trkpt>
      <trkpt lat="43.03521" lon="-0.07617">
        <ele>502.91</ele>
        <time>2013-12-21T14:50:55Z</time>
      </trkpt>
      <trkpt lat="43.03532" lon="-0.07624">
        <ele>500.02</ele>
        <time>2013-12-21T14:51:01Z</time>
      </trkpt>
      <trkpt lat="43.03533" lon="-0.07625">
        <ele>499.06</ele>
        <time>2013-12-21T14:51:02Z</time>
      </trkpt>
      <trkpt lat="43.03537" lon="-0.07644">
        <ele>495.7</ele>
        <time>2013-12-21T14:51:05Z</time>
      </trkpt>
      <trkpt lat="43.03549" lon="-0.07645">
        <ele>492.33</ele>
        <time>2013-12-21T14:51:10Z</time>
      </trkpt>
      <trkpt lat="43.03559" lon="-0.07633">
        <ele>489.93</ele>
        <time>2013-12-21T14:51:14Z</time>
      </trkpt>
      <trkpt lat="43.03564" lon="-0.07622">
        <ele>488.97</ele>
        <time>2013-12-21T14:51:17Z</time>
      </trkpt>
      <trkpt lat="43.03567" lon="-0.07611">
        <ele>488.01</ele>
        <time>2013-12-21T14:51:19Z</time>
      </trkpt>
      <trkpt lat="43.03578" lon="-0.07589">
        <ele>486.08</ele>
        <time>2013-12-21T14:51:26Z</time>
      </trkpt>
      <trkpt lat="43.0358" lon="-0.07587">
        <ele>485.12</ele>
        <time>2013-12-21T14:51:27Z</time>
      </trkpt>
      <trkpt lat="43.03589" lon="-0.07579">
        <ele>482.72</ele>
        <time>2013-12-21T14:51:30Z</time>
      </trkpt>
      <trkpt lat="43.03591" lon="-0.07575">
        <ele>482.24</ele>
        <time>2013-12-21T14:51:31Z</time>
      </trkpt>
      <trkpt lat="43.03575" lon="-0.07563">
        <ele>478.87</ele>
        <time>2013-12-21T14:51:40Z</time>
      </trkpt>
      <trkpt lat="43.03572" lon="-0.07565">
        <ele>479.35</ele>
        <time>2013-12-21T14:51:41Z</time>
      </trkpt>
      <trkpt lat="43.03547" lon="-0.07563">
        <ele>476.95</ele>
        <time>2013-12-21T14:51:50Z</time>
      </trkpt>
      <trkpt lat="43.03537" lon="-0.07558">
        <ele>475.99</ele>
        <time>2013-12-21T14:51:53Z</time>
      </trkpt>
      <trkpt lat="43.03519" lon="-0.07544">
        <ele>472.14</ele>
        <time>2013-12-21T14:51:58Z</time>
      </trkpt>
      <trkpt lat="43.03501" lon="-0.07535">
        <ele>467.82</ele>
        <time>2013-12-21T14:52:03Z</time>
      </trkpt>
      <trkpt lat="43.03497" lon="-0.07534">
        <ele>467.82</ele>
        <time>2013-12-21T14:52:04Z</time>
      </trkpt>
      <trkpt lat="43.03494" lon="-0.07533">
        <ele>468.78</ele>
        <time>2013-12-21T14:52:05Z</time>
      </trkpt>
      <trkpt lat="43.03483" lon="-0.07532">
        <ele>467.82</ele>
        <time>2013-12-21T14:52:09Z</time>
      </trkpt>
      <trkpt lat="43.03474" lon="-0.07524">
        <ele>466.38</ele>
        <time>2013-12-21T14:52:13Z</time>
      </trkpt>
      <trkpt lat="43.03458" lon="-0.07517">
        <ele>465.42</ele>
        <time>2013-12-21T14:52:18Z</time>
      </trkpt>
      <trkpt lat="43.0343" lon="-0.075">
        <ele>463.49</ele>
        <time>2013-12-21T14:52:27Z</time>
      </trkpt>
      <trkpt lat="43.03421" lon="-0.07494">
        <ele>461.09</ele>
        <time>2013-12-21T14:52:30Z</time>
      </trkpt>
      <trkpt lat="43.03406" lon="-0.07483">
        <ele>456.28</ele>
        <time>2013-12-21T14:52:35Z</time>
      </trkpt>
      <trkpt lat="43.03393" lon="-0.07475">
        <ele>453.4</ele>
        <time>2013-12-21T14:52:39Z</time>
      </trkpt>
      <trkpt lat="43.03386" lon="-0.07473">
        <ele>451.48</ele>
        <time>2013-12-21T14:52:41Z</time>
      </trkpt>
      <trkpt lat="43.03384" lon="-0.0747">
        <ele>450.03</ele>
        <time>2013-12-21T14:52:45Z</time>
      </trkpt>
      <trkpt lat="43.03392" lon="-0.07462">
        <ele>448.11</ele>
        <time>2013-12-21T14:52:50Z</time>
      </trkpt>
      <trkpt lat="43.03396" lon="-0.07458">
        <ele>446.67</ele>
        <time>2013-12-21T14:52:58Z</time>
      </trkpt>
      <trkpt lat="43.03396" lon="-0.07458">
        <ele>447.15</ele>
        <time>2013-12-21T14:52:59Z</time>
      </trkpt>
      <trkpt lat="43.03405" lon="-0.07445">
        <ele>443.79</ele>
        <time>2013-12-21T14:53:04Z</time>
      </trkpt>
      <trkpt lat="43.03397" lon="-0.07442">
        <ele>438.98</ele>
        <time>2013-12-21T14:53:09Z</time>
      </trkpt>
      <trkpt lat="43.03395" lon="-0.07443">
        <ele>438.5</ele>
        <time>2013-12-21T14:53:10Z</time>
      </trkpt>
      <trkpt lat="43.03379" lon="-0.07437">
        <ele>435.13</ele>
        <time>2013-12-21T14:53:15Z</time>
      </trkpt>
      <trkpt lat="43.0337" lon="-0.0743">
        <ele>431.29</ele>
        <time>2013-12-21T14:53:19Z</time>
      </trkpt>
      <trkpt lat="43.03368" lon="-0.07429">
        <ele>430.81</ele>
        <time>2013-12-21T14:53:20Z</time>
      </trkpt>
      <trkpt lat="43.03367" lon="-0.07427">
        <ele>429.85</ele>
        <time>2013-12-21T14:53:21Z</time>
      </trkpt>
      <trkpt lat="43.03367" lon="-0.07427">
        <ele>428.89</ele>
        <time>2013-12-21T14:53:22Z</time>
      </trkpt>
      <trkpt lat="43.03366" lon="-0.07413">
        <ele>425.52</ele>
        <time>2013-12-21T14:53:26Z</time>
      </trkpt>
      <trkpt lat="43.0337" lon="-0.07402">
        <ele>422.16</ele>
        <time>2013-12-21T14:53:29Z</time>
      </trkpt>
      <trkpt lat="43.03382" lon="-0.07384">
        <ele>417.83</ele>
        <time>2013-12-21T14:53:34Z</time>
      </trkpt>
      <trkpt lat="43.03386" lon="-0.07372">
        <ele>414.95</ele>
        <time>2013-12-21T14:53:37Z</time>
      </trkpt>
      <trkpt lat="43.03388" lon="-0.07356">
        <ele>410.14</ele>
        <time>2013-12-21T14:53:40Z</time>
      </trkpt>
      <trkpt lat="43.03389" lon="-0.0735">
        <ele>409.18</ele>
        <time>2013-12-21T14:53:41Z</time>
      </trkpt>
      <trkpt lat="43.03396" lon="-0.07334">
        <ele>405.81</ele>
        <time>2013-12-21T14:53:44Z</time>
      </trkpt>
      <trkpt lat="43.03405" lon="-0.07306">
        <ele>401.01</ele>
        <time>2013-12-21T14:53:48Z</time>
      </trkpt>
      <trkpt lat="43.03416" lon="-0.07276">
        <ele>398.6</ele>
        <time>2013-12-21T14:53:55Z</time>
      </trkpt>
      <trkpt lat="43.03414" lon="-0.0727">
        <ele>398.6</ele>
        <time>2013-12-21T14:53:58Z</time>
      </trkpt>
      <trkpt lat="43.03404" lon="-0.07251">
        <ele>398.12</ele>
        <time>2013-12-21T14:54:07Z</time>
      </trkpt>
      <trkpt lat="43.03401" lon="-0.07241">
        <ele>397.64</ele>
        <time>2013-12-21T14:54:12Z</time>
      </trkpt>
      <trkpt lat="43.03398" lon="-0.07239">
        <ele>398.12</ele>
        <time>2013-12-21T14:54:14Z</time>
      </trkpt>
      <trkpt lat="43.03399" lon="-0.07244">
        <ele>397.64</ele>
        <time>2013-12-21T14:54:23Z</time>
      </trkpt>
      <trkpt lat="43.03386" lon="-0.07229">
        <ele>397.64</ele>
        <time>2013-12-21T14:54:31Z</time>
      </trkpt>
      <trkpt lat="43.03375" lon="-0.07227">
        <ele>397.64</ele>
        <time>2013-12-21T14:54:37Z</time>
      </trkpt>
      <trkpt lat="43.03361" lon="-0.07239">
        <ele>397.16</ele>
        <time>2013-12-21T14:54:48Z</time>
      </trkpt>
      <trkpt lat="43.03362" lon="-0.07239">
        <ele>397.16</ele>
        <time>2013-12-21T14:55:19Z</time>
      </trkpt>
      <trkpt lat="43.03361" lon="-0.07239">
        <ele>397.16</ele>
        <time>2013-12-21T14:55:58Z</time>
      </trkpt>
      <trkpt lat="43.0336" lon="-0.07239">
        <ele>397.16</ele>
        <time>2013-12-21T14:56:30Z</time>
      </trkpt>
      <trkpt lat="43.03359" lon="-0.07238">
        <ele>397.16</ele>
        <time>2013-12-21T14:57:04Z</time>
      </trkpt>
      <trkpt lat="43.03358" lon="-0.07238">
        <ele>396.68</ele>
        <time>2013-12-21T14:57:34Z</time>
      </trkpt>
      <trkpt lat="43.03357" lon="-0.0724">
        <ele>397.64</ele>
        <time>2013-12-21T14:57:45Z</time>
      </trkpt>
      <trkpt lat="43.03356" lon="-0.07239">
        <ele>397.64</ele>
        <time>2013-12-21T14:58:05Z</time>
      </trkpt>
      <trkpt lat="43.03353" lon="-0.0724">
        <ele>397.16</ele>
        <time>2013-12-21T14:58:11Z</time>
      </trkpt>
      <trkpt lat="43.03345" lon="-0.07245">
        <ele>397.64</ele>
        <time>2013-12-21T14:58:15Z</time>
      </trkpt>
      <trkpt lat="43.03309" lon="-0.07279">
        <ele>397.16</ele>
        <time>2013-12-21T14:58:29Z</time>
      </trkpt>
      <trkpt lat="43.03279" lon="-0.07301">
        <ele>397.16</ele>
        <time>2013-12-21T14:58:39Z</time>
      </trkpt>
      <trkpt lat="43.0323" lon="-0.07345">
        <ele>397.64</ele>
        <time>2013-12-21T14:58:55Z</time>
      </trkpt>
      <trkpt lat="43.03195" lon="-0.07378">
        <ele>400.53</ele>
        <time>2013-12-21T14:59:08Z</time>
      </trkpt>
      <trkpt lat="43.03169" lon="-0.0742">
        <ele>401.49</ele>
        <time>2013-12-21T14:59:20Z</time>
      </trkpt>
      <trkpt lat="43.0314" lon="-0.07472">
        <ele>402.45</ele>
        <time>2013-12-21T14:59:35Z</time>
      </trkpt>
      <trkpt lat="43.03134" lon="-0.07484">
        <ele>399.08</ele>
        <time>2013-12-21T14:59:38Z</time>
      </trkpt>
      <trkpt lat="43.03132" lon="-0.07488">
        <ele>402.45</ele>
        <time>2013-12-21T14:59:39Z</time>
      </trkpt>
      <trkpt lat="43.03121" lon="-0.07509">
        <ele>399.57</ele>
        <time>2013-12-21T14:59:44Z</time>
      </trkpt>
      <trkpt lat="43.03115" lon="-0.07522">
        <ele>401.97</ele>
        <time>2013-12-21T14:59:47Z</time>
      </trkpt>
      <trkpt lat="43.03087" lon="-0.07576">
        <ele>400.53</ele>
        <time>2013-12-21T15:00:00Z</time>
      </trkpt>
      <trkpt lat="43.03049" lon="-0.0765">
        <ele>402.45</ele>
        <time>2013-12-21T15:00:17Z</time>
      </trkpt>
      <trkpt lat="43.03031" lon="-0.07692">
        <ele>403.41</ele>
        <time>2013-12-21T15:00:27Z</time>
      </trkpt>
      <trkpt lat="43.03012" lon="-0.0773">
        <ele>403.41</ele>
        <time>2013-12-21T15:00:38Z</time>
      </trkpt>
      <trkpt lat="43.03003" lon="-0.07747">
        <ele>404.37</ele>
        <time>2013-12-21T15:00:42Z</time>
      </trkpt>
      <trkpt lat="43.02981" lon="-0.078">
        <ele>406.29</ele>
        <time>2013-12-21T15:00:54Z</time>
      </trkpt>
      <trkpt lat="43.0297" lon="-0.07841">
        <ele>406.77</ele>
        <time>2013-12-21T15:01:02Z</time>
      </trkpt>
      <trkpt lat="43.02967" lon="-0.07869">
        <ele>407.26</ele>
        <time>2013-12-21T15:01:07Z</time>
      </trkpt>
      <trkpt lat="43.02969" lon="-0.07886">
        <ele>407.26</ele>
        <time>2013-12-21T15:01:10Z</time>
      </trkpt>
      <trkpt lat="43.02981" lon="-0.07925">
        <ele>407.26</ele>
        <time>2013-12-21T15:01:17Z</time>
      </trkpt>
      <trkpt lat="43.02991" lon="-0.07944">
        <ele>407.74</ele>
        <time>2013-12-21T15:01:21Z</time>
      </trkpt>
      <trkpt lat="43.03022" lon="-0.07983">
        <ele>410.62</ele>
        <time>2013-12-21T15:01:33Z</time>
      </trkpt>
      <trkpt lat="43.03044" lon="-0.08014">
        <ele>413.98</ele>
        <time>2013-12-21T15:01:43Z</time>
      </trkpt>
      <trkpt lat="43.03055" lon="-0.08026">
        <ele>414.95</ele>
        <time>2013-12-21T15:01:48Z</time>
      </trkpt>
      <trkpt lat="43.03073" lon="-0.08076">
        <ele>416.39</ele>
        <time>2013-12-21T15:02:03Z</time>
      </trkpt>
      <trkpt lat="43.03072" lon="-0.08124">
        <ele>416.39</ele>
        <time>2013-12-21T15:02:13Z</time>
      </trkpt>
      <trkpt lat="43.03076" lon="-0.08195">
        <ele>417.83</ele>
        <time>2013-12-21T15:02:27Z</time>
      </trkpt>
      <trkpt lat="43.03068" lon="-0.08261">
        <ele>418.31</ele>
        <time>2013-12-21T15:02:39Z</time>
      </trkpt>
      <trkpt lat="43.03067" lon="-0.08268">
        <ele>417.83</ele>
        <time>2013-12-21T15:02:40Z</time>
      </trkpt>
      <trkpt lat="43.03059" lon="-0.08335">
        <ele>414.47</ele>
        <time>2013-12-21T15:02:47Z</time>
      </trkpt>
      <trkpt lat="43.03035" lon="-0.08455">
        <ele>410.62</ele>
        <time>2013-12-21T15:02:59Z</time>
      </trkpt>
      <trkpt lat="43.03012" lon="-0.08588">
        <ele>408.7</ele>
        <time>2013-12-21T15:03:12Z</time>
      </trkpt>
      <trkpt lat="43.02987" lon="-0.08718">
        <ele>409.18</ele>
        <time>2013-12-21T15:03:26Z</time>
      </trkpt>
      <trkpt lat="43.02963" lon="-0.0885">
        <ele>411.1</ele>
        <time>2013-12-21T15:03:42Z</time>
      </trkpt>
      <trkpt lat="43.02947" lon="-0.08933">
        <ele>413.98</ele>
        <time>2013-12-21T15:03:55Z</time>
      </trkpt>
      <trkpt lat="43.02933" lon="-0.09006">
        <ele>415.91</ele>
        <time>2013-12-21T15:04:09Z</time>
      </trkpt>
      <trkpt lat="43.02921" lon="-0.09047">
        <ele>416.39</ele>
        <time>2013-12-21T15:04:17Z</time>
      </trkpt>
      <trkpt lat="43.02914" lon="-0.09064">
        <ele>416.39</ele>
        <time>2013-12-21T15:04:20Z</time>
      </trkpt>
      <trkpt lat="43.02891" lon="-0.09108">
        <ele>417.35</ele>
        <time>2013-12-21T15:04:30Z</time>
      </trkpt>
      <trkpt lat="43.0287" lon="-0.09136">
        <ele>416.87</ele>
        <time>2013-12-21T15:04:41Z</time>
      </trkpt>
      <trkpt lat="43.02828" lon="-0.09178">
        <ele>416.39</ele>
        <time>2013-12-21T15:04:55Z</time>
      </trkpt>
      <trkpt lat="43.028" lon="-0.09211">
        <ele>418.31</ele>
        <time>2013-12-21T15:05:08Z</time>
      </trkpt>
      <trkpt lat="43.02793" lon="-0.09218">
        <ele>418.31</ele>
        <time>2013-12-21T15:05:11Z</time>
      </trkpt>
      <trkpt lat="43.0277" lon="-0.09243">
        <ele>418.79</ele>
        <time>2013-12-21T15:05:22Z</time>
      </trkpt>
      <trkpt lat="43.02735" lon="-0.09274">
        <ele>419.27</ele>
        <time>2013-12-21T15:05:35Z</time>
      </trkpt>
      <trkpt lat="43.02733" lon="-0.09276">
        <ele>419.27</ele>
        <time>2013-12-21T15:05:36Z</time>
      </trkpt>
      <trkpt lat="43.02723" lon="-0.09282">
        <ele>419.75</ele>
        <time>2013-12-21T15:05:41Z</time>
      </trkpt>
      <trkpt lat="43.02688" lon="-0.09308">
        <ele>418.79</ele>
        <time>2013-12-21T15:05:54Z</time>
      </trkpt>
      <trkpt lat="43.02639" lon="-0.09344">
        <ele>419.27</ele>
        <time>2013-12-21T15:06:10Z</time>
      </trkpt>
      <trkpt lat="43.02612" lon="-0.09365">
        <ele>419.75</ele>
        <time>2013-12-21T15:06:22Z</time>
      </trkpt>
      <trkpt lat="43.02596" lon="-0.09377">
        <ele>419.75</ele>
        <time>2013-12-21T15:06:30Z</time>
      </trkpt>
      <trkpt lat="43.02589" lon="-0.09383">
        <ele>419.27</ele>
        <time>2013-12-21T15:06:34Z</time>
      </trkpt>
      <trkpt lat="43.02553" lon="-0.0941">
        <ele>418.31</ele>
        <time>2013-12-21T15:06:47Z</time>
      </trkpt>
      <trkpt lat="43.02502" lon="-0.09463">
        <ele>417.35</ele>
        <time>2013-12-21T15:07:03Z</time>
      </trkpt>
      <trkpt lat="43.0248" lon="-0.09495">
        <ele>417.35</ele>
        <time>2013-12-21T15:07:12Z</time>
      </trkpt>
      <trkpt lat="43.02456" lon="-0.09524">
        <ele>417.35</ele>
        <time>2013-12-21T15:07:23Z</time>
      </trkpt>
      <trkpt lat="43.02432" lon="-0.09556">
        <ele>417.35</ele>
        <time>2013-12-21T15:07:34Z</time>
      </trkpt>
      <trkpt lat="43.02416" lon="-0.09582">
        <ele>417.35</ele>
        <time>2013-12-21T15:07:44Z</time>
      </trkpt>
      <trkpt lat="43.02411" lon="-0.09586">
        <ele>417.35</ele>
        <time>2013-12-21T15:07:47Z</time>
      </trkpt>
      <trkpt lat="43.02405" lon="-0.09586">
        <ele>417.35</ele>
        <time>2013-12-21T15:07:56Z</time>
      </trkpt>
      <trkpt lat="43.02408" lon="-0.0958">
        <ele>416.39</ele>
        <time>2013-12-21T15:07:58Z</time>
      </trkpt>
      <trkpt lat="43.02412" lon="-0.09572">
        <ele>416.39</ele>
        <time>2013-12-21T15:08:08Z</time>
      </trkpt>
      <trkpt lat="43.02414" lon="-0.09574">
        <ele>416.87</ele>
        <time>2013-12-21T15:08:40Z</time>
      </trkpt>
      <trkpt lat="43.02413" lon="-0.09575">
        <ele>416.87</ele>
        <time>2013-12-21T15:08:58Z</time>
      </trkpt>
      <trkpt lat="43.02412" lon="-0.09575">
        <ele>416.87</ele>
        <time>2013-12-21T15:09:23Z</time>
      </trkpt>
      <trkpt lat="43.02412" lon="-0.09574">
        <ele>416.87</ele>
        <time>2013-12-21T15:09:55Z</time>
      </trkpt>
      <trkpt lat="43.02412" lon="-0.09573">
        <ele>416.87</ele>
        <time>2013-12-21T15:10:22Z</time>
      </trkpt>
      <trkpt lat="43.02412" lon="-0.09572">
        <ele>416.39</ele>
        <time>2013-12-21T15:10:54Z</time>
      </trkpt>
      <trkpt lat="43.02411" lon="-0.09572">
        <ele>416.87</ele>
        <time>2013-12-21T15:11:23Z</time>
      </trkpt>
      <trkpt lat="43.02412" lon="-0.09573">
        <ele>416.39</ele>
        <time>2013-12-21T15:11:50Z</time>
      </trkpt>
      <trkpt lat="43.02412" lon="-0.09574">
        <ele>416.39</ele>
        <time>2013-12-21T15:12:15Z</time>
      </trkpt>
      <trkpt lat="43.02411" lon="-0.09575">
        <ele>416.39</ele>
        <time>2013-12-21T15:12:46Z</time>
      </trkpt>
      <trkpt lat="43.02411" lon="-0.09575">
        <ele>416.87</ele>
        <time>2013-12-21T15:13:13Z</time>
      </trkpt>
      <trkpt lat="43.02412" lon="-0.09573">
        <ele>416.87</ele>
        <time>2013-12-21T15:13:41Z</time>
      </trkpt>
      <trkpt lat="43.02412" lon="-0.09573">
        <ele>415.91</ele>
        <time>2013-12-21T15:14:11Z</time>
      </trkpt>
      <trkpt lat="43.02413" lon="-0.09573">
        <ele>415.91</ele>
        <time>2013-12-21T15:14:35Z</time>
      </trkpt>
      <trkpt lat="43.02413" lon="-0.09574">
        <ele>415.91</ele>
        <time>2013-12-21T15:15:02Z</time>
      </trkpt>
      <trkpt lat="43.02413" lon="-0.09574">
        <ele>415.91</ele>
        <time>2013-12-21T15:15:23Z</time>
      </trkpt>
      <trkpt lat="43.02414" lon="-0.09576">
        <ele>415.91</ele>
        <time>2013-12-21T15:15:26Z</time>
      </trkpt>
      <trkpt lat="43.0241" lon="-0.09589">
        <ele>415.91</ele>
        <time>2013-12-21T15:15:32Z</time>
      </trkpt>
      <trkpt lat="43.02389" lon="-0.09618">
        <ele>416.87</ele>
        <time>2013-12-21T15:15:43Z</time>
      </trkpt>
      <trkpt lat="43.02352" lon="-0.0965">
        <ele>417.35</ele>
        <time>2013-12-21T15:15:58Z</time>
      </trkpt>
      <trkpt lat="43.0232" lon="-0.09661">
        <ele>417.83</ele>
        <time>2013-12-21T15:16:10Z</time>
      </trkpt>
      <trkpt lat="43.0232" lon="-0.09662">
        <ele>417.35</ele>
        <time>2013-12-21T15:16:12Z</time>
      </trkpt>
      <trkpt lat="43.02322" lon="-0.09668">
        <ele>417.35</ele>
        <time>2013-12-21T15:16:16Z</time>
      </trkpt>
      <trkpt lat="43.02327" lon="-0.09677">
        <ele>418.31</ele>
        <time>2013-12-21T15:16:20Z</time>
      </trkpt>
      <trkpt lat="43.02335" lon="-0.09705">
        <ele>419.75</ele>
        <time>2013-12-21T15:16:31Z</time>
      </trkpt>
      <trkpt lat="43.02338" lon="-0.0972">
        <ele>420.71</ele>
        <time>2013-12-21T15:16:37Z</time>
      </trkpt>
      <trkpt lat="43.02349" lon="-0.0973">
        <ele>421.68</ele>
        <time>2013-12-21T15:16:43Z</time>
      </trkpt>
      <trkpt lat="43.02348" lon="-0.09747">
        <ele>424.08</ele>
        <time>2013-12-21T15:16:52Z</time>
      </trkpt>
      <trkpt lat="43.0235" lon="-0.09758">
        <ele>425.04</ele>
        <time>2013-12-21T15:16:56Z</time>
      </trkpt>
      <trkpt lat="43.02352" lon="-0.09764">
        <ele>426</ele>
        <time>2013-12-21T15:16:59Z</time>
      </trkpt>
      <trkpt lat="43.02359" lon="-0.0978">
        <ele>428.4</ele>
        <time>2013-12-21T15:17:11Z</time>
      </trkpt>
      <trkpt lat="43.02372" lon="-0.09791">
        <ele>431.29</ele>
        <time>2013-12-21T15:17:23Z</time>
      </trkpt>
      <trkpt lat="43.02373" lon="-0.09794">
        <ele>431.29</ele>
        <time>2013-12-21T15:17:25Z</time>
      </trkpt>
      <trkpt lat="43.02373" lon="-0.09806">
        <ele>434.17</ele>
        <time>2013-12-21T15:17:32Z</time>
      </trkpt>
      <trkpt lat="43.02374" lon="-0.09809">
        <ele>434.17</ele>
        <time>2013-12-21T15:17:34Z</time>
      </trkpt>
      <trkpt lat="43.02378" lon="-0.09814">
        <ele>436.1</ele>
        <time>2013-12-21T15:17:46Z</time>
      </trkpt>
      <trkpt lat="43.02379" lon="-0.09813">
        <ele>435.61</ele>
        <time>2013-12-21T15:18:13Z</time>
      </trkpt>
      <trkpt lat="43.0238" lon="-0.09814">
        <ele>436.1</ele>
        <time>2013-12-21T15:18:38Z</time>
      </trkpt>
      <trkpt lat="43.02379" lon="-0.09815">
        <ele>436.1</ele>
        <time>2013-12-21T15:18:59Z</time>
      </trkpt>
      <trkpt lat="43.0238" lon="-0.09815">
        <ele>436.1</ele>
        <time>2013-12-21T15:19:02Z</time>
      </trkpt>
      <trkpt lat="43.02391" lon="-0.09811">
        <ele>438.02</ele>
        <time>2013-12-21T15:19:09Z</time>
      </trkpt>
      <trkpt lat="43.02404" lon="-0.09803">
        <ele>439.94</ele>
        <time>2013-12-21T15:19:18Z</time>
      </trkpt>
      <trkpt lat="43.02415" lon="-0.09797">
        <ele>441.86</ele>
        <time>2013-12-21T15:19:25Z</time>
      </trkpt>
      <trkpt lat="43.0242" lon="-0.09791">
        <ele>443.31</ele>
        <time>2013-12-21T15:19:28Z</time>
      </trkpt>
      <trkpt lat="43.02438" lon="-0.09779">
        <ele>446.67</ele>
        <time>2013-12-21T15:19:41Z</time>
      </trkpt>
      <trkpt lat="43.02454" lon="-0.09769">
        <ele>447.63</ele>
        <time>2013-12-21T15:19:52Z</time>
      </trkpt>
      <trkpt lat="43.02466" lon="-0.0977">
        <ele>450.03</ele>
        <time>2013-12-21T15:20:02Z</time>
      </trkpt>
      <trkpt lat="43.02475" lon="-0.09776">
        <ele>452.44</ele>
        <time>2013-12-21T15:20:12Z</time>
      </trkpt>
      <trkpt lat="43.02484" lon="-0.09784">
        <ele>454.84</ele>
        <time>2013-12-21T15:20:21Z</time>
      </trkpt>
      <trkpt lat="43.02492" lon="-0.09784">
        <ele>456.28</ele>
        <time>2013-12-21T15:20:28Z</time>
      </trkpt>
      <trkpt lat="43.02495" lon="-0.09789">
        <ele>457.24</ele>
        <time>2013-12-21T15:20:31Z</time>
      </trkpt>
      <trkpt lat="43.02503" lon="-0.09799">
        <ele>458.69</ele>
        <time>2013-12-21T15:20:37Z</time>
      </trkpt>
      <trkpt lat="43.02507" lon="-0.09808">
        <ele>460.13</ele>
        <time>2013-12-21T15:20:41Z</time>
      </trkpt>
      <trkpt lat="43.02503" lon="-0.09813">
        <ele>461.57</ele>
        <time>2013-12-21T15:20:54Z</time>
      </trkpt>
      <trkpt lat="43.02502" lon="-0.09822">
        <ele>463.01</ele>
        <time>2013-12-21T15:21:01Z</time>
      </trkpt>
      <trkpt lat="43.02493" lon="-0.09843">
        <ele>464.93</ele>
        <time>2013-12-21T15:21:15Z</time>
      </trkpt>
      <trkpt lat="43.02476" lon="-0.09859">
        <ele>466.86</ele>
        <time>2013-12-21T15:21:29Z</time>
      </trkpt>
      <trkpt lat="43.02473" lon="-0.09866">
        <ele>467.34</ele>
        <time>2013-12-21T15:21:32Z</time>
      </trkpt>
      <trkpt lat="43.02471" lon="-0.09874">
        <ele>468.78</ele>
        <time>2013-12-21T15:21:37Z</time>
      </trkpt>
      <trkpt lat="43.02471" lon="-0.09883">
        <ele>470.22</ele>
        <time>2013-12-21T15:21:42Z</time>
      </trkpt>
      <trkpt lat="43.02477" lon="-0.09909">
        <ele>470.7</ele>
        <time>2013-12-21T15:21:53Z</time>
      </trkpt>
      <trkpt lat="43.0248" lon="-0.09933">
        <ele>472.63</ele>
        <time>2013-12-21T15:22:03Z</time>
      </trkpt>
      <trkpt lat="43.02481" lon="-0.09939">
        <ele>473.59</ele>
        <time>2013-12-21T15:22:06Z</time>
      </trkpt>
      <trkpt lat="43.02486" lon="-0.09948">
        <ele>473.11</ele>
        <time>2013-12-21T15:22:10Z</time>
      </trkpt>
      <trkpt lat="43.02489" lon="-0.09957">
        <ele>473.11</ele>
        <time>2013-12-21T15:22:14Z</time>
      </trkpt>
      <trkpt lat="43.02493" lon="-0.09965">
        <ele>473.59</ele>
        <time>2013-12-21T15:22:17Z</time>
      </trkpt>
      <trkpt lat="43.02497" lon="-0.0998">
        <ele>474.55</ele>
        <time>2013-12-21T15:22:23Z</time>
      </trkpt>
      <trkpt lat="43.02508" lon="-0.10014">
        <ele>475.99</ele>
        <time>2013-12-21T15:22:34Z</time>
      </trkpt>
      <trkpt lat="43.02518" lon="-0.10032">
        <ele>477.91</ele>
        <time>2013-12-21T15:22:42Z</time>
      </trkpt>
      <trkpt lat="43.02524" lon="-0.10045">
        <ele>477.91</ele>
        <time>2013-12-21T15:22:47Z</time>
      </trkpt>
      <trkpt lat="43.02514" lon="-0.10077">
        <ele>478.39</ele>
        <time>2013-12-21T15:22:59Z</time>
      </trkpt>
      <trkpt lat="43.025" lon="-0.10099">
        <ele>479.84</ele>
        <time>2013-12-21T15:23:09Z</time>
      </trkpt>
      <trkpt lat="43.02492" lon="-0.10114">
        <ele>480.8</ele>
        <time>2013-12-21T15:23:15Z</time>
      </trkpt>
      <trkpt lat="43.02488" lon="-0.10122">
        <ele>481.76</ele>
        <time>2013-12-21T15:23:19Z</time>
      </trkpt>
      <trkpt lat="43.02482" lon="-0.10131">
        <ele>481.76</ele>
        <time>2013-12-21T15:23:22Z</time>
      </trkpt>
      <trkpt lat="43.02476" lon="-0.10137">
        <ele>482.72</ele>
        <time>2013-12-21T15:23:26Z</time>
      </trkpt>
      <trkpt lat="43.02463" lon="-0.10148">
        <ele>484.16</ele>
        <time>2013-12-21T15:23:32Z</time>
      </trkpt>
      <trkpt lat="43.02452" lon="-0.10166">
        <ele>485.12</ele>
        <time>2013-12-21T15:23:40Z</time>
      </trkpt>
      <trkpt lat="43.02449" lon="-0.10185">
        <ele>488.01</ele>
        <time>2013-12-21T15:23:47Z</time>
      </trkpt>
      <trkpt lat="43.0245" lon="-0.1019">
        <ele>488.01</ele>
        <time>2013-12-21T15:23:49Z</time>
      </trkpt>
      <trkpt lat="43.02433" lon="-0.10219">
        <ele>489.93</ele>
        <time>2013-12-21T15:24:02Z</time>
      </trkpt>
      <trkpt lat="43.02423" lon="-0.10232">
        <ele>490.89</ele>
        <time>2013-12-21T15:24:08Z</time>
      </trkpt>
      <trkpt lat="43.02415" lon="-0.10241">
        <ele>492.81</ele>
        <time>2013-12-21T15:24:14Z</time>
      </trkpt>
      <trkpt lat="43.02411" lon="-0.10247">
        <ele>494.26</ele>
        <time>2013-12-21T15:24:18Z</time>
      </trkpt>
      <trkpt lat="43.02405" lon="-0.10253">
        <ele>495.7</ele>
        <time>2013-12-21T15:24:22Z</time>
      </trkpt>
      <trkpt lat="43.024" lon="-0.1026">
        <ele>496.18</ele>
        <time>2013-12-21T15:24:25Z</time>
      </trkpt>
      <trkpt lat="43.02381" lon="-0.1026">
        <ele>497.14</ele>
        <time>2013-12-21T15:24:38Z</time>
      </trkpt>
      <trkpt lat="43.02371" lon="-0.10254">
        <ele>497.62</ele>
        <time>2013-12-21T15:24:44Z</time>
      </trkpt>
      <trkpt lat="43.02361" lon="-0.10246">
        <ele>497.14</ele>
        <time>2013-12-21T15:24:52Z</time>
      </trkpt>
      <trkpt lat="43.02338" lon="-0.10257">
        <ele>495.7</ele>
        <time>2013-12-21T15:25:01Z</time>
      </trkpt>
      <trkpt lat="43.0231" lon="-0.10273">
        <ele>496.66</ele>
        <time>2013-12-21T15:25:11Z</time>
      </trkpt>
      <trkpt lat="43.02292" lon="-0.10284">
        <ele>496.66</ele>
        <time>2013-12-21T15:25:20Z</time>
      </trkpt>
      <trkpt lat="43.02271" lon="-0.10288">
        <ele>493.77</ele>
        <time>2013-12-21T15:25:28Z</time>
      </trkpt>
      <trkpt lat="43.02258" lon="-0.10283">
        <ele>493.29</ele>
        <time>2013-12-21T15:25:34Z</time>
      </trkpt>
      <trkpt lat="43.02253" lon="-0.10283">
        <ele>492.33</ele>
        <time>2013-12-21T15:25:44Z</time>
      </trkpt>
      <trkpt lat="43.02249" lon="-0.1028">
        <ele>493.29</ele>
        <time>2013-12-21T15:26:02Z</time>
      </trkpt>
      <trkpt lat="43.02246" lon="-0.10278">
        <ele>493.29</ele>
        <time>2013-12-21T15:26:16Z</time>
      </trkpt>
      <trkpt lat="43.02246" lon="-0.10275">
        <ele>493.29</ele>
        <time>2013-12-21T15:26:31Z</time>
      </trkpt>
      <trkpt lat="43.02244" lon="-0.10276">
        <ele>492.33</ele>
        <time>2013-12-21T15:26:42Z</time>
      </trkpt>
      <trkpt lat="43.02239" lon="-0.10273">
        <ele>493.77</ele>
        <time>2013-12-21T15:26:51Z</time>
      </trkpt>
      <trkpt lat="43.02237" lon="-0.1027">
        <ele>493.29</ele>
        <time>2013-12-21T15:26:54Z</time>
      </trkpt>
      <trkpt lat="43.02226" lon="-0.10255">
        <ele>493.29</ele>
        <time>2013-12-21T15:27:07Z</time>
      </trkpt>
      <trkpt lat="43.0222" lon="-0.10246">
        <ele>492.81</ele>
        <time>2013-12-21T15:27:16Z</time>
      </trkpt>
      <trkpt lat="43.02217" lon="-0.10241">
        <ele>492.81</ele>
        <time>2013-12-21T15:27:18Z</time>
      </trkpt>
      <trkpt lat="43.02213" lon="-0.10236">
        <ele>492.81</ele>
        <time>2013-12-21T15:27:22Z</time>
      </trkpt>
      <trkpt lat="43.02185" lon="-0.10227">
        <ele>490.89</ele>
        <time>2013-12-21T15:27:33Z</time>
      </trkpt>
      <trkpt lat="43.02183" lon="-0.10227">
        <ele>490.89</ele>
        <time>2013-12-21T15:27:34Z</time>
      </trkpt>
      <trkpt lat="43.02179" lon="-0.10212">
        <ele>488.97</ele>
        <time>2013-12-21T15:27:38Z</time>
      </trkpt>
      <trkpt lat="43.02164" lon="-0.10199">
        <ele>485.12</ele>
        <time>2013-12-21T15:27:42Z</time>
      </trkpt>
      <trkpt lat="43.02144" lon="-0.10203">
        <ele>483.2</ele>
        <time>2013-12-21T15:27:45Z</time>
      </trkpt>
      <trkpt lat="43.0213" lon="-0.10206">
        <ele>485.12</ele>
        <time>2013-12-21T15:27:48Z</time>
      </trkpt>
      <trkpt lat="43.02125" lon="-0.10202">
        <ele>486.08</ele>
        <time>2013-12-21T15:27:50Z</time>
      </trkpt>
      <trkpt lat="43.02113" lon="-0.10187">
        <ele>488.01</ele>
        <time>2013-12-21T15:27:55Z</time>
      </trkpt>
      <trkpt lat="43.02092" lon="-0.10156">
        <ele>489.93</ele>
        <time>2013-12-21T15:28:07Z</time>
      </trkpt>
      <trkpt lat="43.0208" lon="-0.10152">
        <ele>490.89</ele>
        <time>2013-12-21T15:28:13Z</time>
      </trkpt>
      <trkpt lat="43.02077" lon="-0.10155">
        <ele>491.37</ele>
        <time>2013-12-21T15:28:15Z</time>
      </trkpt>
      <trkpt lat="43.0206" lon="-0.10165">
        <ele>494.26</ele>
        <time>2013-12-21T15:28:26Z</time>
      </trkpt>
      <trkpt lat="43.02053" lon="-0.10168">
        <ele>495.7</ele>
        <time>2013-12-21T15:28:31Z</time>
      </trkpt>
      <trkpt lat="43.0205" lon="-0.10167">
        <ele>496.66</ele>
        <time>2013-12-21T15:28:33Z</time>
      </trkpt>
      <trkpt lat="43.02038" lon="-0.10163">
        <ele>499.06</ele>
        <time>2013-12-21T15:28:41Z</time>
      </trkpt>
      <trkpt lat="43.02022" lon="-0.10157">
        <ele>501.46</ele>
        <time>2013-12-21T15:28:51Z</time>
      </trkpt>
      <trkpt lat="43.02012" lon="-0.10153">
        <ele>502.43</ele>
        <time>2013-12-21T15:28:57Z</time>
      </trkpt>
      <trkpt lat="43.02" lon="-0.10154">
        <ele>503.87</ele>
        <time>2013-12-21T15:29:04Z</time>
      </trkpt>
      <trkpt lat="43.01993" lon="-0.10156">
        <ele>504.83</ele>
        <time>2013-12-21T15:29:08Z</time>
      </trkpt>
      <trkpt lat="43.01985" lon="-0.10167">
        <ele>507.23</ele>
        <time>2013-12-21T15:29:18Z</time>
      </trkpt>
      <trkpt lat="43.0198" lon="-0.10168">
        <ele>507.23</ele>
        <time>2013-12-21T15:29:20Z</time>
      </trkpt>
      <trkpt lat="43.01967" lon="-0.10163">
        <ele>507.71</ele>
        <time>2013-12-21T15:29:29Z</time>
      </trkpt>
      <trkpt lat="43.01962" lon="-0.10162">
        <ele>507.71</ele>
        <time>2013-12-21T15:29:32Z</time>
      </trkpt>
      <trkpt lat="43.01953" lon="-0.10156">
        <ele>508.19</ele>
        <time>2013-12-21T15:29:39Z</time>
      </trkpt>
      <trkpt lat="43.01937" lon="-0.10145">
        <ele>509.16</ele>
        <time>2013-12-21T15:29:52Z</time>
      </trkpt>
      <trkpt lat="43.01932" lon="-0.10142">
        <ele>509.64</ele>
        <time>2013-12-21T15:29:56Z</time>
      </trkpt>
      <trkpt lat="43.01927" lon="-0.10138">
        <ele>510.6</ele>
        <time>2013-12-21T15:29:59Z</time>
      </trkpt>
      <trkpt lat="43.0191" lon="-0.10124">
        <ele>512.52</ele>
        <time>2013-12-21T15:30:09Z</time>
      </trkpt>
      <trkpt lat="43.01907" lon="-0.10122">
        <ele>513</ele>
        <time>2013-12-21T15:30:11Z</time>
      </trkpt>
      <trkpt lat="43.01902" lon="-0.1012">
        <ele>513</ele>
        <time>2013-12-21T15:30:14Z</time>
      </trkpt>
      <trkpt lat="43.01887" lon="-0.10115">
        <ele>513.48</ele>
        <time>2013-12-21T15:30:23Z</time>
      </trkpt>
      <trkpt lat="43.01868" lon="-0.10113">
        <ele>514.92</ele>
        <time>2013-12-21T15:30:33Z</time>
      </trkpt>
      <trkpt lat="43.0186" lon="-0.10114">
        <ele>515.4</ele>
        <time>2013-12-21T15:30:37Z</time>
      </trkpt>
      <trkpt lat="43.01842" lon="-0.10111">
        <ele>513.48</ele>
        <time>2013-12-21T15:30:46Z</time>
      </trkpt>
      <trkpt lat="43.01824" lon="-0.101">
        <ele>513</ele>
        <time>2013-12-21T15:30:59Z</time>
      </trkpt>
      <trkpt lat="43.01815" lon="-0.10098">
        <ele>513</ele>
        <time>2013-12-21T15:31:05Z</time>
      </trkpt>
      <trkpt lat="43.01803" lon="-0.10096">
        <ele>513</ele>
        <time>2013-12-21T15:31:12Z</time>
      </trkpt>
      <trkpt lat="43.01782" lon="-0.1009">
        <ele>511.56</ele>
        <time>2013-12-21T15:31:19Z</time>
      </trkpt>
      <trkpt lat="43.01774" lon="-0.10088">
        <ele>511.08</ele>
        <time>2013-12-21T15:31:21Z</time>
      </trkpt>
      <trkpt lat="43.01756" lon="-0.10086">
        <ele>508.67</ele>
        <time>2013-12-21T15:31:24Z</time>
      </trkpt>
      <trkpt lat="43.01739" lon="-0.10091">
        <ele>508.19</ele>
        <time>2013-12-21T15:31:27Z</time>
      </trkpt>
      <trkpt lat="43.01719" lon="-0.10088">
        <ele>509.64</ele>
        <time>2013-12-21T15:31:32Z</time>
      </trkpt>
      <trkpt lat="43.01707" lon="-0.10069">
        <ele>511.56</ele>
        <time>2013-12-21T15:31:37Z</time>
      </trkpt>
      <trkpt lat="43.01704" lon="-0.10062">
        <ele>512.52</ele>
        <time>2013-12-21T15:31:39Z</time>
      </trkpt>
      <trkpt lat="43.01703" lon="-0.10054">
        <ele>513.48</ele>
        <time>2013-12-21T15:31:41Z</time>
      </trkpt>
      <trkpt lat="43.01701" lon="-0.10047">
        <ele>514.92</ele>
        <time>2013-12-21T15:31:43Z</time>
      </trkpt>
      <trkpt lat="43.01697" lon="-0.10038">
        <ele>515.88</ele>
        <time>2013-12-21T15:31:46Z</time>
      </trkpt>
      <trkpt lat="43.01691" lon="-0.1002">
        <ele>515.88</ele>
        <time>2013-12-21T15:31:52Z</time>
      </trkpt>
      <trkpt lat="43.01685" lon="-0.10007">
        <ele>515.4</ele>
        <time>2013-12-21T15:31:55Z</time>
      </trkpt>
      <trkpt lat="43.01674" lon="-0.09993">
        <ele>514.92</ele>
        <time>2013-12-21T15:31:59Z</time>
      </trkpt>
      <trkpt lat="43.01668" lon="-0.09989">
        <ele>513.96</ele>
        <time>2013-12-21T15:32:01Z</time>
      </trkpt>
      <trkpt lat="43.0164" lon="-0.09986">
        <ele>511.08</ele>
        <time>2013-12-21T15:32:07Z</time>
      </trkpt>
      <trkpt lat="43.01634" lon="-0.09987">
        <ele>510.6</ele>
        <time>2013-12-21T15:32:08Z</time>
      </trkpt>
      <trkpt lat="43.01605" lon="-0.09998">
        <ele>508.67</ele>
        <time>2013-12-21T15:32:13Z</time>
      </trkpt>
      <trkpt lat="43.01593" lon="-0.10002">
        <ele>507.71</ele>
        <time>2013-12-21T15:32:15Z</time>
      </trkpt>
      <trkpt lat="43.01574" lon="-0.10007">
        <ele>505.79</ele>
        <time>2013-12-21T15:32:18Z</time>
      </trkpt>
      <trkpt lat="43.01553" lon="-0.10014">
        <ele>502.91</ele>
        <time>2013-12-21T15:32:21Z</time>
      </trkpt>
      <trkpt lat="43.01532" lon="-0.10023">
        <ele>500.5</ele>
        <time>2013-12-21T15:32:24Z</time>
      </trkpt>
      <trkpt lat="43.01507" lon="-0.10039">
        <ele>497.62</ele>
        <time>2013-12-21T15:32:28Z</time>
      </trkpt>
      <trkpt lat="43.01474" lon="-0.10069">
        <ele>493.77</ele>
        <time>2013-12-21T15:32:33Z</time>
      </trkpt>
      <trkpt lat="43.01467" lon="-0.10075">
        <ele>492.81</ele>
        <time>2013-12-21T15:32:34Z</time>
      </trkpt>
      <trkpt lat="43.01437" lon="-0.10113">
        <ele>490.41</ele>
        <time>2013-12-21T15:32:39Z</time>
      </trkpt>
      <trkpt lat="43.0143" lon="-0.10119">
        <ele>489.93</ele>
        <time>2013-12-21T15:32:40Z</time>
      </trkpt>
      <trkpt lat="43.01395" lon="-0.10136">
        <ele>490.89</ele>
        <time>2013-12-21T15:32:45Z</time>
      </trkpt>
      <trkpt lat="43.01384" lon="-0.10139">
        <ele>491.85</ele>
        <time>2013-12-21T15:32:47Z</time>
      </trkpt>
      <trkpt lat="43.01375" lon="-0.10138">
        <ele>493.29</ele>
        <time>2013-12-21T15:32:50Z</time>
      </trkpt>
      <trkpt lat="43.01372" lon="-0.10137">
        <ele>493.77</ele>
        <time>2013-12-21T15:32:52Z</time>
      </trkpt>
      <trkpt lat="43.01362" lon="-0.10135">
        <ele>492.33</ele>
        <time>2013-12-21T15:32:57Z</time>
      </trkpt>
      <trkpt lat="43.01346" lon="-0.10134">
        <ele>490.41</ele>
        <time>2013-12-21T15:33:00Z</time>
      </trkpt>
      <trkpt lat="43.01324" lon="-0.10126">
        <ele>489.93</ele>
        <time>2013-12-21T15:33:04Z</time>
      </trkpt>
      <trkpt lat="43.01314" lon="-0.10123">
        <ele>489.93</ele>
        <time>2013-12-21T15:33:06Z</time>
      </trkpt>
      <trkpt lat="43.01303" lon="-0.10119">
        <ele>489.93</ele>
        <time>2013-12-21T15:33:08Z</time>
      </trkpt>
      <trkpt lat="43.01277" lon="-0.10118">
        <ele>485.6</ele>
        <time>2013-12-21T15:33:12Z</time>
      </trkpt>
      <trkpt lat="43.01261" lon="-0.10122">
        <ele>483.68</ele>
        <time>2013-12-21T15:33:14Z</time>
      </trkpt>
      <trkpt lat="43.01248" lon="-0.10128">
        <ele>483.2</ele>
        <time>2013-12-21T15:33:16Z</time>
      </trkpt>
      <trkpt lat="43.01235" lon="-0.10134">
        <ele>480.32</ele>
        <time>2013-12-21T15:33:18Z</time>
      </trkpt>
      <trkpt lat="43.01212" lon="-0.10141">
        <ele>475.03</ele>
        <time>2013-12-21T15:33:21Z</time>
      </trkpt>
      <trkpt lat="43.01204" lon="-0.10144">
        <ele>473.11</ele>
        <time>2013-12-21T15:33:22Z</time>
      </trkpt>
      <trkpt lat="43.01181" lon="-0.10159">
        <ele>470.22</ele>
        <time>2013-12-21T15:33:25Z</time>
      </trkpt>
      <trkpt lat="43.01165" lon="-0.10157">
        <ele>468.78</ele>
        <time>2013-12-21T15:33:29Z</time>
      </trkpt>
      <trkpt lat="43.01157" lon="-0.10156">
        <ele>467.34</ele>
        <time>2013-12-21T15:33:32Z</time>
      </trkpt>
      <trkpt lat="43.01144" lon="-0.10155">
        <ele>464.93</ele>
        <time>2013-12-21T15:33:37Z</time>
      </trkpt>
      <trkpt lat="43.01131" lon="-0.10156">
        <ele>463.01</ele>
        <time>2013-12-21T15:33:42Z</time>
      </trkpt>
      <trkpt lat="43.01094" lon="-0.10136">
        <ele>461.09</ele>
        <time>2013-12-21T15:33:51Z</time>
      </trkpt>
      <trkpt lat="43.01061" lon="-0.10134">
        <ele>461.57</ele>
        <time>2013-12-21T15:34:00Z</time>
      </trkpt>
      <trkpt lat="43.01032" lon="-0.10138">
        <ele>462.53</ele>
        <time>2013-12-21T15:34:10Z</time>
      </trkpt>
      <trkpt lat="43.01003" lon="-0.10122">
        <ele>461.57</ele>
        <time>2013-12-21T15:34:19Z</time>
      </trkpt>
      <trkpt lat="43.00958" lon="-0.10124">
        <ele>462.53</ele>
        <time>2013-12-21T15:34:33Z</time>
      </trkpt>
      <trkpt lat="43.00951" lon="-0.10123">
        <ele>462.53</ele>
        <time>2013-12-21T15:34:35Z</time>
      </trkpt>
      <trkpt lat="43.00934" lon="-0.1011">
        <ele>459.17</ele>
        <time>2013-12-21T15:34:39Z</time>
      </trkpt>
      <trkpt lat="43.0091" lon="-0.10113">
        <ele>457.24</ele>
        <time>2013-12-21T15:34:44Z</time>
      </trkpt>
      <trkpt lat="43.00895" lon="-0.10134">
        <ele>460.61</ele>
        <time>2013-12-21T15:34:52Z</time>
      </trkpt>
      <trkpt lat="43.00886" lon="-0.10141">
        <ele>461.57</ele>
        <time>2013-12-21T15:34:57Z</time>
      </trkpt>
      <trkpt lat="43.00881" lon="-0.10145">
        <ele>462.53</ele>
        <time>2013-12-21T15:35:00Z</time>
      </trkpt>
      <trkpt lat="43.00876" lon="-0.10156">
        <ele>463.97</ele>
        <time>2013-12-21T15:35:06Z</time>
      </trkpt>
      <trkpt lat="43.00852" lon="-0.1017">
        <ele>464.93</ele>
        <time>2013-12-21T15:35:17Z</time>
      </trkpt>
      <trkpt lat="43.00836" lon="-0.10179">
        <ele>467.34</ele>
        <time>2013-12-21T15:35:25Z</time>
      </trkpt>
      <trkpt lat="43.00809" lon="-0.10192">
        <ele>469.74</ele>
        <time>2013-12-21T15:35:39Z</time>
      </trkpt>
      <trkpt lat="43.00781" lon="-0.10207">
        <ele>470.7</ele>
        <time>2013-12-21T15:35:51Z</time>
      </trkpt>
      <trkpt lat="43.00772" lon="-0.10214">
        <ele>472.14</ele>
        <time>2013-12-21T15:35:55Z</time>
      </trkpt>
      <trkpt lat="43.00741" lon="-0.10241">
        <ele>474.07</ele>
        <time>2013-12-21T15:36:11Z</time>
      </trkpt>
      <trkpt lat="43.00714" lon="-0.10256">
        <ele>475.03</ele>
        <time>2013-12-21T15:36:23Z</time>
      </trkpt>
      <trkpt lat="43.00689" lon="-0.10262">
        <ele>475.99</ele>
        <time>2013-12-21T15:36:35Z</time>
      </trkpt>
      <trkpt lat="43.00663" lon="-0.10269">
        <ele>476.47</ele>
        <time>2013-12-21T15:36:49Z</time>
      </trkpt>
      <trkpt lat="43.00643" lon="-0.10275">
        <ele>476.47</ele>
        <time>2013-12-21T15:37:00Z</time>
      </trkpt>
      <trkpt lat="43.00632" lon="-0.10269">
        <ele>475.99</ele>
        <time>2013-12-21T15:37:06Z</time>
      </trkpt>
      <trkpt lat="43.00632" lon="-0.10258">
        <ele>475.03</ele>
        <time>2013-12-21T15:37:10Z</time>
      </trkpt>
      <trkpt lat="43.0064" lon="-0.10235">
        <ele>473.11</ele>
        <time>2013-12-21T15:37:15Z</time>
      </trkpt>
      <trkpt lat="43.00639" lon="-0.10211">
        <ele>471.18</ele>
        <time>2013-12-21T15:37:19Z</time>
      </trkpt>
      <trkpt lat="43.0062" lon="-0.10195">
        <ele>467.82</ele>
        <time>2013-12-21T15:37:23Z</time>
      </trkpt>
      <trkpt lat="43.0059" lon="-0.10176">
        <ele>462.53</ele>
        <time>2013-12-21T15:37:29Z</time>
      </trkpt>
      <trkpt lat="43.00588" lon="-0.10176">
        <ele>462.05</ele>
        <time>2013-12-21T15:37:30Z</time>
      </trkpt>
      <trkpt lat="43.00581" lon="-0.1017">
        <ele>461.57</ele>
        <time>2013-12-21T15:37:36Z</time>
      </trkpt>
      <trkpt lat="43.00578" lon="-0.10173">
        <ele>461.09</ele>
        <time>2013-12-21T15:37:42Z</time>
      </trkpt>
      <trkpt lat="43.00575" lon="-0.10174">
        <ele>460.13</ele>
        <time>2013-12-21T15:37:54Z</time>
      </trkpt>
      <trkpt lat="43.00572" lon="-0.10173">
        <ele>460.13</ele>
        <time>2013-12-21T15:37:55Z</time>
      </trkpt>
      <trkpt lat="43.00558" lon="-0.10172">
        <ele>458.69</ele>
        <time>2013-12-21T15:37:58Z</time>
      </trkpt>
      <trkpt lat="43.00544" lon="-0.10172">
        <ele>456.28</ele>
        <time>2013-12-21T15:38:01Z</time>
      </trkpt>
      <trkpt lat="43.00547" lon="-0.10161">
        <ele>454.36</ele>
        <time>2013-12-21T15:38:06Z</time>
      </trkpt>
      <trkpt lat="43.0056" lon="-0.10159">
        <ele>454.84</ele>
        <time>2013-12-21T15:38:10Z</time>
      </trkpt>
      <trkpt lat="43.00576" lon="-0.10147">
        <ele>452.44</ele>
        <time>2013-12-21T15:38:16Z</time>
      </trkpt>
      <trkpt lat="43.00583" lon="-0.10114">
        <ele>451.48</ele>
        <time>2013-12-21T15:38:22Z</time>
      </trkpt>
      <trkpt lat="43.0058" lon="-0.10091">
        <ele>452.44</ele>
        <time>2013-12-21T15:38:26Z</time>
      </trkpt>
      <trkpt lat="43.00585" lon="-0.10042">
        <ele>451.48</ele>
        <time>2013-12-21T15:38:38Z</time>
      </trkpt>
      <trkpt lat="43.00586" lon="-0.10038">
        <ele>451.48</ele>
        <time>2013-12-21T15:38:41Z</time>
      </trkpt>
      <trkpt lat="43.00584" lon="-0.10022">
        <ele>448.59</ele>
        <time>2013-12-21T15:38:47Z</time>
      </trkpt>
      <trkpt lat="43.00578" lon="-0.09989">
        <ele>443.79</ele>
        <time>2013-12-21T15:38:51Z</time>
      </trkpt>
      <trkpt lat="43.0057" lon="-0.09961">
        <ele>440.42</ele>
        <time>2013-12-21T15:38:55Z</time>
      </trkpt>
      <trkpt lat="43.00567" lon="-0.09945">
        <ele>438.02</ele>
        <time>2013-12-21T15:38:57Z</time>
      </trkpt>
      <trkpt lat="43.00557" lon="-0.09907">
        <ele>434.17</ele>
        <time>2013-12-21T15:39:02Z</time>
      </trkpt>
      <trkpt lat="43.00542" lon="-0.09866">
        <ele>434.17</ele>
        <time>2013-12-21T15:39:11Z</time>
      </trkpt>
      <trkpt lat="43.00536" lon="-0.09855">
        <ele>435.13</ele>
        <time>2013-12-21T15:39:14Z</time>
      </trkpt>
      <trkpt lat="43.00534" lon="-0.09837">
        <ele>434.17</ele>
        <time>2013-12-21T15:39:18Z</time>
      </trkpt>
      <trkpt lat="43.00534" lon="-0.0982">
        <ele>433.21</ele>
        <time>2013-12-21T15:39:21Z</time>
      </trkpt>
      <trkpt lat="43.00538" lon="-0.09791">
        <ele>432.73</ele>
        <time>2013-12-21T15:39:26Z</time>
      </trkpt>
      <trkpt lat="43.00545" lon="-0.09751">
        <ele>432.25</ele>
        <time>2013-12-21T15:39:33Z</time>
      </trkpt>
      <trkpt lat="43.00546" lon="-0.09744">
        <ele>432.25</ele>
        <time>2013-12-21T15:39:34Z</time>
      </trkpt>
      <trkpt lat="43.00549" lon="-0.09725">
        <ele>431.29</ele>
        <time>2013-12-21T15:39:37Z</time>
      </trkpt>
      <trkpt lat="43.00553" lon="-0.09708">
        <ele>431.29</ele>
        <time>2013-12-21T15:39:40Z</time>
      </trkpt>
      <trkpt lat="43.00554" lon="-0.09695">
        <ele>430.81</ele>
        <time>2013-12-21T15:39:42Z</time>
      </trkpt>
      <trkpt lat="43.00567" lon="-0.09657">
        <ele>428.4</ele>
        <time>2013-12-21T15:39:47Z</time>
      </trkpt>
      <trkpt lat="43.00575" lon="-0.09601">
        <ele>427.92</ele>
        <time>2013-12-21T15:39:54Z</time>
      </trkpt>
      <trkpt lat="43.00578" lon="-0.09596">
        <ele>427.92</ele>
        <time>2013-12-21T15:39:55Z</time>
      </trkpt>
      <trkpt lat="43.00582" lon="-0.09587">
        <ele>427.92</ele>
        <time>2013-12-21T15:39:57Z</time>
      </trkpt>
      <trkpt lat="43.00597" lon="-0.09575">
        <ele>426.48</ele>
        <time>2013-12-21T15:40:01Z</time>
      </trkpt>
      <trkpt lat="43.00623" lon="-0.09568">
        <ele>426.96</ele>
        <time>2013-12-21T15:40:06Z</time>
      </trkpt>
      <trkpt lat="43.00657" lon="-0.09545">
        <ele>424.56</ele>
        <time>2013-12-21T15:40:13Z</time>
      </trkpt>
      <trkpt lat="43.0067" lon="-0.09534">
        <ele>424.56</ele>
        <time>2013-12-21T15:40:16Z</time>
      </trkpt>
      <trkpt lat="43.00686" lon="-0.09522">
        <ele>424.08</ele>
        <time>2013-12-21T15:40:20Z</time>
      </trkpt>
      <trkpt lat="43.00708" lon="-0.09509">
        <ele>423.12</ele>
        <time>2013-12-21T15:40:25Z</time>
      </trkpt>
      <trkpt lat="43.00741" lon="-0.09503">
        <ele>422.64</ele>
        <time>2013-12-21T15:40:33Z</time>
      </trkpt>
      <trkpt lat="43.00744" lon="-0.09502">
        <ele>423.12</ele>
        <time>2013-12-21T15:40:44Z</time>
      </trkpt>
      <trkpt lat="43.00742" lon="-0.095">
        <ele>423.12</ele>
        <time>2013-12-21T15:41:15Z</time>
      </trkpt>
      <trkpt lat="43.00744" lon="-0.09501">
        <ele>422.64</ele>
        <time>2013-12-21T15:41:47Z</time>
      </trkpt>
      <trkpt lat="43.00744" lon="-0.09502">
        <ele>423.12</ele>
        <time>2013-12-21T15:42:19Z</time>
      </trkpt>
      <trkpt lat="43.00744" lon="-0.09502">
        <ele>422.64</ele>
        <time>2013-12-21T15:42:34Z</time>
      </trkpt>
      <trkpt lat="43.00745" lon="-0.09501">
        <ele>418.31</ele>
        <time>2013-12-21T15:42:55Z</time>
      </trkpt>
      <trkpt lat="43.00742" lon="-0.095">
        <ele>423.6</ele>
        <time>2013-12-21T15:43:07Z</time>
      </trkpt>
    </trkseg>
  </trk>
</gpx>